<?xml version="1.0" encoding="UTF-8" standalone="no" ?><gpx xmlns="http://www.topografix.com/GPX/1/1" xmlns:gpxx="http://www.garmin.com/xmlschemas/GpxExtensions/v3" xmlns:wptx1="http://www.garmin.com/xmlschemas/WaypointExtension/v1" xmlns:gpxtpx="http://www.garmin.com/xmlschemas/TrackPointExtension/v1" creator="GuideVTT.com" version="1.1" xmlns:xsi="http://www.w3.org/2001/XMLSchema-instance" xsi:schemaLocation="http://www.topografix.com/GPX/1/1 http://www.topografix.com/GPX/1/1/gpx.xsd http://www.garmin.com/xmlschemas/GpxExtensions/v3 http://www8.garmin.com/xmlschemas/GpxExtensionsv3.xsd http://www.garmin.com/xmlschemas/WaypointExtension/v1 http://www8.garmin.com/xmlschemas/WaypointExtensionv1.xsd http://www.garmin.com/xmlschemas/TrackPointExtension/v1 http://www.garmin.com/xmlschemas/TrackPointExtensionv1.xsd">
<metadata><link href="http://www.garmin.com"><text>Garmin International</text></link><time>2013-06-22T15:13:50Z</time></metadata>
<trk><name>yverdon1562d.gpx</name><extensions><gpxx:TrackExtension><gpxx:DisplayColor>Cyan</gpxx:DisplayColor></gpxx:TrackExtension></extensions><trkseg>
<trkpt lat="46.79135677110614" lon="6.62323398847593"><ele></ele><time>2014-6-22T14:51:7Z</time></trkpt>
<trkpt lat="46.79140887128779" lon="6.622971242979773"><ele></ele><time>2014-6-22T14:51:10Z</time></trkpt>
<trkpt lat="46.79200496660994" lon="6.623302769530522"><ele></ele><time>2014-6-22T14:51:13Z</time></trkpt>
<trkpt lat="46.79302754132692" lon="6.6193347496777815"><ele></ele><time>2014-6-22T14:51:16Z</time></trkpt>
<trkpt lat="46.79308459939593" lon="6.618508693790513"><ele></ele><time>2014-6-22T14:51:19Z</time></trkpt>
<trkpt lat="46.79310876949183" lon="6.61811537879332"><ele></ele><time>2014-6-22T14:51:22Z</time></trkpt>
<trkpt lat="46.793605837319724" lon="6.6184352845877585"><ele></ele><time>2014-6-22T14:51:25Z</time></trkpt>
<trkpt lat="46.79396638564421" lon="6.618534595313539"><ele></ele><time>2014-6-22T14:51:28Z</time></trkpt>
<trkpt lat="46.79410130984772" lon="6.618532545942909"><ele></ele><time>2014-6-22T14:51:31Z</time></trkpt>
<trkpt lat="46.79409990268453" lon="6.618336089771876"><ele></ele><time>2014-6-22T14:51:34Z</time></trkpt>
<trkpt lat="46.79391784545218" lon="6.618037591148581"><ele></ele><time>2014-6-22T14:51:37Z</time></trkpt>
<trkpt lat="46.7938894526001" lon="6.617841545878497"><ele></ele><time>2014-6-22T14:51:40Z</time></trkpt>
<trkpt lat="46.794020902242615" lon="6.617354903641735"><ele></ele><time>2014-6-22T14:51:43Z</time></trkpt>
<trkpt lat="46.79413332593982" lon="6.616724464920563"><ele></ele><time>2014-6-22T14:51:46Z</time></trkpt>
<trkpt lat="46.79414755435997" lon="6.616200307605266"><ele></ele><time>2014-6-22T14:51:49Z</time></trkpt>
<trkpt lat="46.79423543396506" lon="6.615910801106472"><ele></ele><time>2014-6-22T14:51:52Z</time></trkpt>
<trkpt lat="46.794212454679254" lon="6.61521692888385"><ele></ele><time>2014-6-22T14:51:55Z</time></trkpt>
<trkpt lat="46.794092223234" lon="6.614760314733263"><ele></ele><time>2014-6-22T14:51:58Z</time></trkpt>
<trkpt lat="46.79420302924502" lon="6.613907219140862"><ele></ele><time>2014-6-22T14:52:1Z</time></trkpt>
<trkpt lat="46.794241680513245" lon="6.613029026150082"><ele></ele><time>2014-6-22T14:52:4Z</time></trkpt>
<trkpt lat="46.79432284143079" lon="6.611809618294985"><ele></ele><time>2014-6-22T14:52:7Z</time></trkpt>
<trkpt lat="46.79433704732409" lon="6.611285457836624"><ele></ele><time>2014-6-22T14:52:10Z</time></trkpt>
<trkpt lat="46.794244542403156" lon="6.610933214463187"><ele></ele><time>2014-6-22T14:52:13Z</time></trkpt>
<trkpt lat="46.79454232196735" lon="6.611059635682331"><ele></ele><time>2014-6-22T14:52:16Z</time></trkpt>
<trkpt lat="46.79500816527499" lon="6.610790520508403"><ele></ele><time>2014-6-22T14:52:19Z</time></trkpt>
<trkpt lat="46.79539324293288" lon="6.610548837125845"><ele></ele><time>2014-6-22T14:52:22Z</time></trkpt>
<trkpt lat="46.79584346327257" lon="6.610607426490085"><ele></ele><time>2014-6-22T14:52:25Z</time></trkpt>
<trkpt lat="46.79624993986213" lon="6.610836975177752"><ele></ele><time>2014-6-22T14:52:28Z</time></trkpt>
<trkpt lat="46.7965824684142" lon="6.6107925793086215"><ele></ele><time>2014-6-22T14:52:31Z</time></trkpt>
<trkpt lat="46.796744850655486" lon="6.6108555852295225"><ele></ele><time>2014-6-22T14:52:34Z</time></trkpt>
<trkpt lat="46.79698799792562" lon="6.6108911548728635"><ele></ele><time>2014-6-22T14:52:37Z</time></trkpt>
<trkpt lat="46.79753053358581" lon="6.611275817306483"><ele></ele><time>2014-6-22T14:52:40Z</time></trkpt>
<trkpt lat="46.79788843803698" lon="6.611008343773059"><ele></ele><time>2014-6-22T14:52:43Z</time></trkpt>
<trkpt lat="46.79815449837999" lon="6.6104802850465445"><ele></ele><time>2014-6-22T14:52:46Z</time></trkpt>
<trkpt lat="46.79858218069867" lon="6.609910441427822"><ele></ele><time>2014-6-22T14:52:49Z</time></trkpt>
<trkpt lat="46.79875904537184" lon="6.609488537675195"><ele></ele><time>2014-6-22T14:52:52Z</time></trkpt>
<trkpt lat="46.798755440546216" lon="6.608990806319429"><ele></ele><time>2014-6-22T14:52:55Z</time></trkpt>
<trkpt lat="46.798951905458" lon="6.608791291668546"><ele></ele><time>2014-6-22T14:52:58Z</time></trkpt>
<trkpt lat="46.798975567296644" lon="6.608332438275925"><ele></ele><time>2014-6-22T14:53:1Z</time></trkpt>
<trkpt lat="46.799018642288175" lon="6.608069781469064"><ele></ele><time>2014-6-22T14:53:4Z</time></trkpt>
<trkpt lat="46.79869935323218" lon="6.607459010508624"><ele></ele><time>2014-6-22T14:53:7Z</time></trkpt>
<trkpt lat="46.79848819031558" lon="6.606872780003865"><ele></ele><time>2014-6-22T14:53:10Z</time></trkpt>
<trkpt lat="46.79839443444223" lon="6.606350241764407"><ele></ele><time>2014-6-22T14:53:13Z</time></trkpt>
<trkpt lat="46.79843388525798" lon="6.605589858042091"><ele></ele><time>2014-6-22T14:53:16Z</time></trkpt>
<trkpt lat="46.79850088798239" lon="6.604907645179903"><ele></ele><time>2014-6-22T14:53:19Z</time></trkpt>
<trkpt lat="46.79869133368308" lon="6.60388293189817"><ele></ele><time>2014-6-22T14:53:22Z</time></trkpt>
<trkpt lat="46.79852915163568" lon="6.6026147777696345"><ele></ele><time>2014-6-22T14:53:25Z</time></trkpt>
<trkpt lat="46.798267724074655" lon="6.601308871620674"><ele></ele><time>2014-6-22T14:53:28Z</time></trkpt>
<trkpt lat="46.79812369515025" lon="6.600066651803169"><ele></ele><time>2014-6-22T14:53:31Z</time></trkpt>
<trkpt lat="46.79800442778748" lon="6.598522765024651"><ele></ele><time>2014-6-22T14:53:34Z</time></trkpt>
<trkpt lat="46.79795301172281" lon="6.5976459002688195"><ele></ele><time>2014-6-22T14:53:37Z</time></trkpt>
<trkpt lat="46.798596796856685" lon="6.597111886150186"><ele></ele><time>2014-6-22T14:53:40Z</time></trkpt>
<trkpt lat="46.79944698090152" lon="6.596509140640266"><ele></ele><time>2014-6-22T14:53:43Z</time></trkpt>
<trkpt lat="46.80014444094116" lon="6.595934960201214"><ele></ele><time>2014-6-22T14:53:46Z</time></trkpt>
<trkpt lat="46.800813755759776" lon="6.5952040024025145"><ele></ele><time>2014-6-22T14:53:49Z</time></trkpt>
<trkpt lat="46.80112017893871" lon="6.5940594930047975"><ele></ele><time>2014-6-22T14:53:52Z</time></trkpt>
<trkpt lat="46.801222995817874" lon="6.5933635696781785"><ele></ele><time>2014-6-22T14:53:55Z</time></trkpt>
<trkpt lat="46.80144351631207" lon="6.592770601761249"><ele></ele><time>2014-6-22T14:53:58Z</time></trkpt>
<trkpt lat="46.801688403818304" lon="6.591823536216143"><ele></ele><time>2014-6-22T14:54:1Z</time></trkpt>
<trkpt lat="46.80182822764147" lon="6.590052784736843"><ele></ele><time>2014-6-22T14:54:4Z</time></trkpt>
<trkpt lat="46.802002007873895" lon="6.589224723043206"><ele></ele><time>2014-6-22T14:54:7Z</time></trkpt>
<trkpt lat="46.802043764459235" lon="6.588644210328357"><ele></ele><time>2014-6-22T14:54:10Z</time></trkpt>
<trkpt lat="46.80189341357909" lon="6.587781950784317"><ele></ele><time>2014-6-22T14:54:13Z</time></trkpt>
<trkpt lat="46.80174266571269" lon="6.586867300466685"><ele></ele><time>2014-6-22T14:54:16Z</time></trkpt>
<trkpt lat="46.801611659113746" lon="6.586188150119887"><ele></ele><time>2014-6-22T14:54:19Z</time></trkpt>
<trkpt lat="46.80151662796077" lon="6.585508433425105"><ele></ele><time>2014-6-22T14:54:22Z</time></trkpt>
<trkpt lat="46.80147732315328" lon="6.585063642877447"><ele></ele><time>2014-6-22T14:54:25Z</time></trkpt>
<trkpt lat="46.80140282012681" lon="6.584724213699486"><ele></ele><time>2014-6-22T14:54:28Z</time></trkpt>
<trkpt lat="46.801254594566196" lon="6.584150148340145"><ele></ele><time>2014-6-22T14:54:31Z</time></trkpt>
<trkpt lat="46.801266800438135" lon="6.583511459363503"><ele></ele><time>2014-6-22T14:54:34Z</time></trkpt>
<trkpt lat="46.80148482242717" lon="6.582590980401711"><ele></ele><time>2014-6-22T14:54:37Z</time></trkpt>
<trkpt lat="46.80176550718986" lon="6.581630197796122"><ele></ele><time>2014-6-22T14:54:40Z</time></trkpt>
<trkpt lat="46.80201226482266" lon="6.580945054652098"><ele></ele><time>2014-6-22T14:54:43Z</time></trkpt>
<trkpt lat="46.802097993873815" lon="6.580380370393185"><ele></ele><time>2014-6-22T14:54:46Z</time></trkpt>
<trkpt lat="46.80111672126953" lon="6.579085943769249"><ele></ele><time>2014-6-22T14:54:49Z</time></trkpt>
<trkpt lat="46.80005447988701" lon="6.577792855221815"><ele></ele><time>2014-6-22T14:54:52Z</time></trkpt>
<trkpt lat="46.79925504754756" lon="6.576757616872559"><ele></ele><time>2014-6-22T14:54:55Z</time></trkpt>
<trkpt lat="46.79849433775943" lon="6.575967329905136"><ele></ele><time>2014-6-22T14:54:58Z</time></trkpt>
<trkpt lat="46.79771543835806" lon="6.575272427069509"><ele></ele><time>2014-6-22T14:55:1Z</time></trkpt>
<trkpt lat="46.7972016252767" lon="6.573944524573381"><ele></ele><time>2014-6-22T14:55:4Z</time></trkpt>
<trkpt lat="46.79734455194246" lon="6.573811237217882"><ele></ele><time>2014-6-22T14:55:7Z</time></trkpt>
<trkpt lat="46.79757544406828" lon="6.573414548193813"><ele></ele><time>2014-6-22T14:55:10Z</time></trkpt>
<trkpt lat="46.79780693004288" lon="6.5730964432558725"><ele></ele><time>2014-6-22T14:55:13Z</time></trkpt>
<trkpt lat="46.799029040311375" lon="6.57291961563974"><ele></ele><time>2014-6-22T14:55:16Z</time></trkpt>
<trkpt lat="46.799856765650084" lon="6.5729325175252065"><ele></ele><time>2014-6-22T14:55:19Z</time></trkpt>
<trkpt lat="46.80032132238237" lon="6.572505850226032"><ele></ele><time>2014-6-22T14:55:22Z</time></trkpt>
<trkpt lat="46.80048124411296" lon="6.572241276496822"><ele></ele><time>2014-6-22T14:55:25Z</time></trkpt>
<trkpt lat="46.800460258478154" lon="6.571956827673114"><ele></ele><time>2014-6-22T14:55:28Z</time></trkpt>
<trkpt lat="46.80038582060641" lon="6.571630519896564"><ele></ele><time>2014-6-22T14:55:31Z</time></trkpt>
<trkpt lat="46.800274410115065" lon="6.571173806157818"><ele></ele><time>2014-6-22T14:55:34Z</time></trkpt>
<trkpt lat="46.80027321932718" lon="6.571016624225181"><ele></ele><time>2014-6-22T14:55:37Z</time></trkpt>
<trkpt lat="46.80067372021672" lon="6.57044687912046"><ele></ele><time>2014-6-22T14:55:40Z</time></trkpt>
<trkpt lat="46.800869621157105" lon="6.570181723706202"><ele></ele><time>2014-6-22T14:55:43Z</time></trkpt>
<trkpt lat="46.801495586227986" lon="6.5696869386487595"><ele></ele><time>2014-6-22T14:55:46Z</time></trkpt>
<trkpt lat="46.80192505394888" lon="6.569378713913332"><ele></ele><time>2014-6-22T14:55:49Z</time></trkpt>
<trkpt lat="46.80246325501395" lon="6.569173537649345"><ele></ele><time>2014-6-22T14:55:52Z</time></trkpt>
<trkpt lat="46.80331627635517" lon="6.568963285114408"><ele></ele><time>2014-6-22T14:55:55Z</time></trkpt>
<trkpt lat="46.80363239009577" lon="6.56912850386806"><ele></ele><time>2014-6-22T14:55:58Z</time></trkpt>
<trkpt lat="46.803829282716436" lon="6.5689943226532215"><ele></ele><time>2014-6-22T14:56:1Z</time></trkpt>
<trkpt lat="46.80387246633909" lon="6.5687578094986785"><ele></ele><time>2014-6-22T14:56:4Z</time></trkpt>
<trkpt lat="46.80386778818339" lon="6.568142139410579"><ele></ele><time>2014-6-22T14:56:7Z</time></trkpt>
<trkpt lat="46.804203118124605" lon="6.567285163291775"><ele></ele><time>2014-6-22T14:56:10Z</time></trkpt>
<trkpt lat="46.80448766416588" lon="6.566848232905577"><ele></ele><time>2014-6-22T14:56:13Z</time></trkpt>
<trkpt lat="46.80469384815924" lon="6.566753194614453"><ele></ele><time>2014-6-22T14:56:16Z</time></trkpt>
<trkpt lat="46.80518776821835" lon="6.56664040600317"><ele></ele><time>2014-6-22T14:56:19Z</time></trkpt>
<trkpt lat="46.80570027638461" lon="6.566605923489639"><ele></ele><time>2014-6-22T14:56:22Z</time></trkpt>
<trkpt lat="46.80604208146994" lon="6.56660040130128"><ele></ele><time>2014-6-22T14:56:25Z</time></trkpt>
<trkpt lat="46.80637409364212" lon="6.566490224616664"><ele></ele><time>2014-6-22T14:56:28Z</time></trkpt>
<trkpt lat="46.80644455603644" lon="6.566292562101726"><ele></ele><time>2014-6-22T14:56:31Z</time></trkpt>
<trkpt lat="46.80635191267549" lon="6.5659403168430135"><ele></ele><time>2014-6-22T14:56:34Z</time></trkpt>
<trkpt lat="46.806115948339205" lon="6.565573697394767"><ele></ele><time>2014-6-22T14:56:37Z</time></trkpt>
<trkpt lat="46.80616572350581" lon="6.565117930716866"><ele></ele><time>2014-6-22T14:56:40Z</time></trkpt>
<trkpt lat="46.80651431807073" lon="6.563644907879945"><ele></ele><time>2014-6-22T14:56:43Z</time></trkpt>
<trkpt lat="46.80670519543909" lon="6.562724696839479"><ele></ele><time>2014-6-22T14:56:46Z</time></trkpt>
<trkpt lat="46.80686128939257" lon="6.561962264717845"><ele></ele><time>2014-6-22T14:56:49Z</time></trkpt>
<trkpt lat="46.80696551642858" lon="6.561475807687824"><ele></ele><time>2014-6-22T14:56:52Z</time></trkpt>
<trkpt lat="46.80716687761914" lon="6.560751937180938"><ele></ele><time>2014-6-22T14:56:55Z</time></trkpt>
<trkpt lat="46.80729949055646" lon="6.560448438454257"><ele></ele><time>2014-6-22T14:56:58Z</time></trkpt>
<trkpt lat="46.807457423914805" lon="6.561100961511311"><ele></ele><time>2014-6-22T14:57:1Z</time></trkpt>
<trkpt lat="46.80775776664465" lon="6.561554645785243"><ele></ele><time>2014-6-22T14:57:4Z</time></trkpt>
<trkpt lat="46.80816805107591" lon="6.562268589921179"><ele></ele><time>2014-6-22T14:57:7Z</time></trkpt>
<trkpt lat="46.80873374727553" lon="6.5633075774676115"><ele></ele><time>2014-6-22T14:57:10Z</time></trkpt>
<trkpt lat="46.80918899503767" lon="6.564020819075752"><ele></ele><time>2014-6-22T14:57:13Z</time></trkpt>
<trkpt lat="46.80964623724219" lon="6.564996087950038"><ele></ele><time>2014-6-22T14:57:16Z</time></trkpt>
<trkpt lat="46.80990238910122" lon="6.5655553465725145"><ele></ele><time>2014-6-22T14:57:19Z</time></trkpt>
<trkpt lat="46.81035133335426" lon="6.565443263729121"><ele></ele><time>2014-6-22T14:57:22Z</time></trkpt>
<trkpt lat="46.81075160611468" lon="6.564847168616709"><ele></ele><time>2014-6-22T14:57:25Z</time></trkpt>
<trkpt lat="46.81128009422247" lon="6.563371101207883"><ele></ele><time>2014-6-22T14:57:28Z</time></trkpt>
<trkpt lat="46.811649864167485" lon="6.56231687480442"><ele></ele><time>2014-6-22T14:57:31Z</time></trkpt>
<trkpt lat="46.812047813144346" lon="6.561419411305965"><ele></ele><time>2014-6-22T14:57:34Z</time></trkpt>
<trkpt lat="46.812268669749784" lon="6.560891700542716"><ele></ele><time>2014-6-22T14:57:37Z</time></trkpt>
<trkpt lat="46.8123803800065" lon="6.560208524995668"><ele></ele><time>2014-6-22T14:57:40Z</time></trkpt>
<trkpt lat="46.8124165063173" lon="6.559054867479554"><ele></ele><time>2014-6-22T14:57:43Z</time></trkpt>
<trkpt lat="46.81247393440921" lon="6.558333262210956"><ele></ele><time>2014-6-22T14:57:46Z</time></trkpt>
<trkpt lat="46.81249689001635" lon="6.55780876437093"><ele></ele><time>2014-6-22T14:57:49Z</time></trkpt>
<trkpt lat="46.812495882403205" lon="6.557677749962032"><ele></ele><time>2014-6-22T14:57:52Z</time></trkpt>
<trkpt lat="46.812696086444355" lon="6.557975853987912"><ele></ele><time>2014-6-22T14:57:55Z</time></trkpt>
<trkpt lat="46.81295217186023" lon="6.558522009351336"><ele></ele><time>2014-6-22T14:57:58Z</time></trkpt>
<trkpt lat="46.81328779965652" lon="6.558883427622548"><ele></ele><time>2014-6-22T14:58:1Z</time></trkpt>
<trkpt lat="46.81372106188975" lon="6.559072915491194"><ele></ele><time>2014-6-22T14:58:4Z</time></trkpt>
<trkpt lat="46.814191510136865" lon="6.559419042405709"><ele></ele><time>2014-6-22T14:58:7Z</time></trkpt>
<trkpt lat="46.814354423104426" lon="6.559547423601057"><ele></ele><time>2014-6-22T14:58:10Z</time></trkpt>
<trkpt lat="46.8146935646496" lon="6.560367426933414"><ele></ele><time>2014-6-22T14:58:13Z</time></trkpt>
<trkpt lat="46.81478873512082" lon="6.561047267239831"><ele></ele><time>2014-6-22T14:58:16Z</time></trkpt>
<trkpt lat="46.81479305019753" lon="6.5616106534692715"><ele></ele><time>2014-6-22T14:58:19Z</time></trkpt>
<trkpt lat="46.81511689273662" lon="6.562784724879879"><ele></ele><time>2014-6-22T14:58:22Z</time></trkpt>
<trkpt lat="46.81525231647649" lon="6.562848045737454"><ele></ele><time>2014-6-22T14:58:25Z</time></trkpt>
<trkpt lat="46.81583698208717" lon="6.56283855743503"><ele></ele><time>2014-6-22T14:58:28Z</time></trkpt>
<trkpt lat="46.81570506390642" lon="6.563233813972465"><ele></ele><time>2014-6-22T14:58:31Z</time></trkpt>
<trkpt lat="46.81596292514081" lon="6.564015866124606"><ele></ele><time>2014-6-22T14:58:34Z</time></trkpt>
<trkpt lat="46.81637818998607" lon="6.565385057606059"><ele></ele><time>2014-6-22T14:58:37Z</time></trkpt>
<trkpt lat="46.81671948466747" lon="6.566493383096741"><ele></ele><time>2014-6-22T14:58:40Z</time></trkpt>
<trkpt lat="46.81713392295648" lon="6.56775779219237"><ele></ele><time>2014-6-22T14:58:43Z</time></trkpt>
<trkpt lat="46.81725483951714" lon="6.568280009784256"><ele></ele><time>2014-6-22T14:58:46Z</time></trkpt>
<trkpt lat="46.8170969129926" lon="6.5688067242005115"><ele></ele><time>2014-6-22T14:58:49Z</time></trkpt>
<trkpt lat="46.81687681542595" lon="6.569439270003817"><ele></ele><time>2014-6-22T14:58:52Z</time></trkpt>
<trkpt lat="46.816887730367604" lon="6.569592446427319"><ele></ele><time>2014-6-22T14:58:55Z</time></trkpt>
<trkpt lat="46.816905720034626" lon="6.569592156205319"><ele></ele><time>2014-6-22T14:58:58Z</time></trkpt>
<trkpt lat="46.816387007036425" lon="6.569993645365038"><ele></ele><time>2014-6-22T14:59:1Z</time></trkpt>
<trkpt lat="46.815600437411234" lon="6.570661520731719"><ele></ele><time>2014-6-22T14:59:4Z</time></trkpt>
<trkpt lat="46.815224643554046" lon="6.570929650623802"><ele></ele><time>2014-6-22T14:59:7Z</time></trkpt>
<trkpt lat="46.81475810527763" lon="6.571094408880133"><ele></ele><time>2014-6-22T14:59:10Z</time></trkpt>
<trkpt lat="46.81441928363807" lon="6.571492971836549"><ele></ele><time>2014-6-22T14:59:13Z</time></trkpt>
<trkpt lat="46.81418899467605" lon="6.571968404517582"><ele></ele><time>2014-6-22T14:59:16Z</time></trkpt>
<trkpt lat="46.813657642609606" lon="6.573077635282108"><ele></ele><time>2014-6-22T14:59:19Z</time></trkpt>
<trkpt lat="46.81301398084513" lon="6.573612105122601"><ele></ele><time>2014-6-22T14:59:22Z</time></trkpt>
<trkpt lat="46.81208367034867" lon="6.574308397653464"><ele></ele><time>2014-6-22T14:59:25Z</time></trkpt>
<trkpt lat="46.811296679130514" lon="6.574923751868521"><ele></ele><time>2014-6-22T14:59:28Z</time></trkpt>
<trkpt lat="46.80988400068968" lon="6.576073209281939"><ele></ele><time>2014-6-22T14:59:31Z</time></trkpt>
<trkpt lat="46.81016727724839" lon="6.577850614824648"><ele></ele><time>2014-6-22T14:59:34Z</time></trkpt>
<trkpt lat="46.81044678389542" lon="6.579130201058903"><ele></ele><time>2014-6-22T14:59:37Z</time></trkpt>
<trkpt lat="46.81059464071406" lon="6.5796519464348835"><ele></ele><time>2014-6-22T14:59:40Z</time></trkpt>
<trkpt lat="46.81040049391079" lon="6.580152939111818"><ele></ele><time>2014-6-22T14:59:43Z</time></trkpt>
<trkpt lat="46.810278500413794" lon="6.580678984128882"><ele></ele><time>2014-6-22T14:59:46Z</time></trkpt>
<trkpt lat="46.81059100859324" lon="6.581564984381605"><ele></ele><time>2014-6-22T14:59:49Z</time></trkpt>
<trkpt lat="46.81094145158832" lon="6.582712445629907"><ele></ele><time>2014-6-22T14:59:52Z</time></trkpt>
<trkpt lat="46.81107169447305" lon="6.583286895896315"><ele></ele><time>2014-6-22T14:59:55Z</time></trkpt>
<trkpt lat="46.81114757344151" lon="6.583809800505569"><ele></ele><time>2014-6-22T14:59:58Z</time></trkpt>
<trkpt lat="46.81108168599039" lon="6.584623214314726"><ele></ele><time>2014-6-22T15:0:1Z</time></trkpt>
<trkpt lat="46.81167378038637" lon="6.584404182650406"><ele></ele><time>2014-6-22T15:0:4Z</time></trkpt>
<trkpt lat="46.811931703634755" lon="6.585212474093176"><ele></ele><time>2014-6-22T15:0:7Z</time></trkpt>
<trkpt lat="46.812379282797416" lon="6.587328074315817"><ele></ele><time>2014-6-22T15:0:10Z</time></trkpt>
<trkpt lat="46.81245475321517" lon="6.587798591296179"><ele></ele><time>2014-6-22T15:0:13Z</time></trkpt>
<trkpt lat="46.80987008062896" lon="6.5886255547478845"><ele></ele><time>2014-6-22T15:0:16Z</time></trkpt>
<trkpt lat="46.81041639374092" lon="6.5895079084165324"><ele></ele><time>2014-6-22T15:0:19Z</time></trkpt>
<trkpt lat="46.810743516924816" lon="6.589948241791188"><ele></ele><time>2014-6-22T15:0:22Z</time></trkpt>
<trkpt lat="46.811074137296686" lon="6.590860222701792"><ele></ele><time>2014-6-22T15:0:25Z</time></trkpt>
<trkpt lat="46.81109465280274" lon="6.591200570234143"><ele></ele><time>2014-6-22T15:0:28Z</time></trkpt>
<trkpt lat="46.81188586357973" lon="6.593572851634682"><ele></ele><time>2014-6-22T15:0:31Z</time></trkpt>
<trkpt lat="46.81237158572313" lon="6.596002392448346"><ele></ele><time>2014-6-22T15:0:34Z</time></trkpt>
<trkpt lat="46.812836762225906" lon="6.5980916156506915"><ele></ele><time>2014-6-22T15:0:37Z</time></trkpt>
<trkpt lat="46.813208299021646" lon="6.599684409944252"><ele></ele><time>2014-6-22T15:0:40Z</time></trkpt>
<trkpt lat="46.81344889284181" lon="6.600597891575661"><ele></ele><time>2014-6-22T15:0:43Z</time></trkpt>
<trkpt lat="46.813729678933875" lon="6.602087303129594"><ele></ele><time>2014-6-22T15:0:46Z</time></trkpt>
<trkpt lat="46.813786715519306" lon="6.602505724350565"><ele></ele><time>2014-6-22T15:0:49Z</time></trkpt>
<trkpt lat="46.81416965760542" lon="6.60567081106389"><ele></ele><time>2014-6-22T15:0:52Z</time></trkpt>
<trkpt lat="46.814551180427166" lon="6.608652514060913"><ele></ele><time>2014-6-22T15:0:55Z</time></trkpt>
<trkpt lat="46.81486009762324" lon="6.611556751176918"><ele></ele><time>2014-6-22T15:0:58Z</time></trkpt>
<trkpt lat="46.81555771617991" lon="6.610995682847792"><ele></ele><time>2014-6-22T15:1:1Z</time></trkpt>
<trkpt lat="46.81567323855049" lon="6.61204221068366"><ele></ele><time>2014-6-22T15:1:4Z</time></trkpt>
<trkpt lat="46.81577132923417" lon="6.613167632821416"><ele></ele><time>2014-6-22T15:1:7Z</time></trkpt>
<trkpt lat="46.815940234101454" lon="6.614134729139539"><ele></ele><time>2014-6-22T15:1:10Z</time></trkpt>
<trkpt lat="46.81688972207521" lon="6.613569825515196"><ele></ele><time>2014-6-22T15:1:13Z</time></trkpt>
<trkpt lat="46.81758621471125" lon="6.612851528575316"><ele></ele><time>2014-6-22T15:1:16Z</time></trkpt>
<trkpt lat="46.817818377906384" lon="6.612612092133897"><ele></ele><time>2014-6-22T15:1:19Z</time></trkpt>
<trkpt lat="46.81831716649703" lon="6.611923013465336"><ele></ele><time>2014-6-22T15:1:22Z</time></trkpt>
<trkpt lat="46.818909502160835" lon="6.611730458774947"><ele></ele><time>2014-6-22T15:1:25Z</time></trkpt>
<trkpt lat="46.819591975863" lon="6.611562725287637"><ele></ele><time>2014-6-22T15:1:28Z</time></trkpt>
<trkpt lat="46.82003849615288" lon="6.611110304554768"><ele></ele><time>2014-6-22T15:1:31Z</time></trkpt>
<trkpt lat="46.820501675705756" lon="6.610474150782302"><ele></ele><time>2014-6-22T15:1:34Z</time></trkpt>
<trkpt lat="46.820801423861184" lon="6.609630820098043"><ele></ele><time>2014-6-22T15:1:37Z</time></trkpt>
<trkpt lat="46.82087205255834" lon="6.609446262372787"><ele></ele><time>2014-6-22T15:1:40Z</time></trkpt>
<trkpt lat="46.82123032692769" lon="6.609231064912862"><ele></ele><time>2014-6-22T15:1:43Z</time></trkpt>
<trkpt lat="46.82174917733662" lon="6.608829917660528"><ele></ele><time>2014-6-22T15:1:46Z</time></trkpt>
<trkpt lat="46.82224718135658" lon="6.608035922300843"><ele></ele><time>2014-6-22T15:1:49Z</time></trkpt>
<trkpt lat="46.82256432942321" lon="6.607113649038314"><ele></ele><time>2014-6-22T15:1:52Z</time></trkpt>
<trkpt lat="46.82279361990777" lon="6.606481044168224"><ele></ele><time>2014-6-22T15:1:55Z</time></trkpt>
<trkpt lat="46.8231308453394" lon="6.6058467650498605"><ele></ele><time>2014-6-22T15:1:58Z</time></trkpt>
<trkpt lat="46.82327151721405" lon="6.605398998227509"><ele></ele><time>2014-6-22T15:2:1Z</time></trkpt>
<trkpt lat="46.82324664773038" lon="6.604455777018959"><ele></ele><time>2014-6-22T15:2:4Z</time></trkpt>
<trkpt lat="46.82322330169933" lon="6.603722223092423"><ele></ele><time>2014-6-22T15:2:7Z</time></trkpt>
<trkpt lat="46.82346979698376" lon="6.6029844832927855"><ele></ele><time>2014-6-22T15:2:10Z</time></trkpt>
<trkpt lat="46.82378575357656" lon="6.601904907918476"><ele></ele><time>2014-6-22T15:2:13Z</time></trkpt>
<trkpt lat="46.82403127721123" lon="6.6010361086615355"><ele></ele><time>2014-6-22T15:2:16Z</time></trkpt>
<trkpt lat="46.82452999561682" lon="6.60034684328269"><ele></ele><time>2014-6-22T15:2:19Z</time></trkpt>
<trkpt lat="46.824960019374515" lon="6.600104241285189"><ele></ele><time>2014-6-22T15:2:22Z</time></trkpt>
<trkpt lat="46.82521149107238" lon="6.6000479017484315"><ele></ele><time>2014-6-22T15:2:25Z</time></trkpt>
<trkpt lat="46.825500479870925" lon="6.600200676640614"><ele></ele><time>2014-6-22T15:2:28Z</time></trkpt>
<trkpt lat="46.8259331940775" lon="6.600325003615822"><ele></ele><time>2014-6-22T15:2:31Z</time></trkpt>
<trkpt lat="46.826093756311344" lon="6.600139015770313"><ele></ele><time>2014-6-22T15:2:34Z</time></trkpt>
<trkpt lat="46.82621314601807" lon="6.5992459239812495"><ele></ele><time>2014-6-22T15:2:37Z</time></trkpt>
<trkpt lat="46.82624123174215" lon="6.59817076328282"><ele></ele><time>2014-6-22T15:2:40Z</time></trkpt>
<trkpt lat="46.826219387770216" lon="6.597646849189251"><ele></ele><time>2014-6-22T15:2:43Z</time></trkpt>
<trkpt lat="46.826285753682434" lon="6.596885642222528"><ele></ele><time>2014-6-22T15:2:46Z</time></trkpt>
<trkpt lat="46.82640434531682" lon="6.595887700739674"><ele></ele><time>2014-6-22T15:2:49Z</time></trkpt>
<trkpt lat="46.82666955298404" lon="6.595254439556584"><ele></ele><time>2014-6-22T15:2:52Z</time></trkpt>
<trkpt lat="46.82686221788549" lon="6.594543669664928"><ele></ele><time>2014-6-22T15:2:55Z</time></trkpt>
<trkpt lat="46.82678600096088" lon="6.593968177335759"><ele></ele><time>2014-6-22T15:2:58Z</time></trkpt>
<trkpt lat="46.82681810684277" lon="6.593443412725289"><ele></ele><time>2014-6-22T15:3:1Z</time></trkpt>
<trkpt lat="46.82695989299686" lon="6.593152843337507"><ele></ele><time>2014-6-22T15:3:4Z</time></trkpt>
<trkpt lat="46.827548512178275" lon="6.592462054274228"><ele></ele><time>2014-6-22T15:3:7Z</time></trkpt>
<trkpt lat="46.82779881606979" lon="6.592248413407332"><ele></ele><time>2014-6-22T15:3:10Z</time></trkpt>
<trkpt lat="46.82791082715677" lon="6.592797138545204"><ele></ele><time>2014-6-22T15:3:13Z</time></trkpt>
<trkpt lat="46.8279510705635" lon="6.593373205911753"><ele></ele><time>2014-6-22T15:3:16Z</time></trkpt>
<trkpt lat="46.827865963988074" lon="6.594029880721039"><ele></ele><time>2014-6-22T15:3:19Z</time></trkpt>
<trkpt lat="46.82779787601162" lon="6.5945552190734045"><ele></ele><time>2014-6-22T15:3:22Z</time></trkpt>
<trkpt lat="46.827982221545945" lon="6.595155243142922"><ele></ele><time>2014-6-22T15:3:25Z</time></trkpt>
<trkpt lat="46.82836367780963" lon="6.595647331252981"><ele></ele><time>2014-6-22T15:3:28Z</time></trkpt>
<trkpt lat="46.82849018541066" lon="6.595723992712986"><ele></ele><time>2014-6-22T15:3:31Z</time></trkpt>
<trkpt lat="46.828576461785396" lon="6.595224578234037"><ele></ele><time>2014-6-22T15:3:34Z</time></trkpt>
<trkpt lat="46.82855150838055" lon="6.594281268792589"><ele></ele><time>2014-6-22T15:3:37Z</time></trkpt>
<trkpt lat="46.82858400300944" lon="6.59380890891606"><ele></ele><time>2014-6-22T15:3:40Z</time></trkpt>
<trkpt lat="46.828543761801456" lon="6.5932328344529605"><ele></ele><time>2014-6-22T15:3:43Z</time></trkpt>
<trkpt lat="46.82952970599413" lon="6.592745498930907"><ele></ele><time>2014-6-22T15:3:46Z</time></trkpt>
<trkpt lat="46.8322016323812" lon="6.591550040483603"><ele></ele><time>2014-6-22T15:3:49Z</time></trkpt>
<trkpt lat="46.83212598332355" lon="6.591053133090393"><ele></ele><time>2014-6-22T15:3:52Z</time></trkpt>
<trkpt lat="46.83208767211302" lon="6.5907391484890825"><ele></ele><time>2014-6-22T15:3:55Z</time></trkpt>
<trkpt lat="46.83226659709027" lon="6.590605252817098"><ele></ele><time>2014-6-22T15:3:58Z</time></trkpt>
<trkpt lat="46.83277244611135" lon="6.590885662766307"><ele></ele><time>2014-6-22T15:4:1Z</time></trkpt>
<trkpt lat="46.833353166339656" lon="6.591558143410618"><ele></ele><time>2014-6-22T15:4:4Z</time></trkpt>
<trkpt lat="46.83371703622503" lon="6.592102964681419"><ele></ele><time>2014-6-22T15:4:7Z</time></trkpt>
<trkpt lat="46.83402635266297" lon="6.592570000579773"><ele></ele><time>2014-6-22T15:4:10Z</time></trkpt>
<trkpt lat="46.83429852472882" lon="6.592880324872711"><ele></ele><time>2014-6-22T15:4:13Z</time></trkpt>
<trkpt lat="46.83489761020003" lon="6.593604991680178"><ele></ele><time>2014-6-22T15:4:16Z</time></trkpt>
<trkpt lat="46.835460711660964" lon="6.594330238725084"><ele></ele><time>2014-6-22T15:4:19Z</time></trkpt>
<trkpt lat="46.83608067735851" lon="6.595447873450296"><ele></ele><time>2014-6-22T15:4:22Z</time></trkpt>
<trkpt lat="46.836500042656226" lon="6.596201622000044"><ele></ele><time>2014-6-22T15:4:25Z</time></trkpt>
<trkpt lat="46.83668148416306" lon="6.596408526258584"><ele></ele><time>2014-6-22T15:4:28Z</time></trkpt>
<trkpt lat="46.83662558424078" lon="6.5961472223521875"><ele></ele><time>2014-6-22T15:4:31Z</time></trkpt>
<trkpt lat="46.83671572578456" lon="6.596172029925162"><ele></ele><time>2014-6-22T15:4:34Z</time></trkpt>
<trkpt lat="46.83700742178459" lon="6.596691826480045"><ele></ele><time>2014-6-22T15:4:37Z</time></trkpt>
<trkpt lat="46.83737261694592" lon="6.597420225596887"><ele></ele><time>2014-6-22T15:4:40Z</time></trkpt>
<trkpt lat="46.83795464692189" lon="6.598276342363597"><ele></ele><time>2014-6-22T15:4:43Z</time></trkpt>
<trkpt lat="46.83832079417345" lon="6.599135843219159"><ele></ele><time>2014-6-22T15:4:46Z</time></trkpt>
<trkpt lat="46.83872387542325" lon="6.600125874582188"><ele></ele><time>2014-6-22T15:4:49Z</time></trkpt>
<trkpt lat="46.83897957398765" lon="6.60064627187163"><ele></ele><time>2014-6-22T15:4:52Z</time></trkpt>
<trkpt lat="46.83903623166279" lon="6.601012455833722"><ele></ele><time>2014-6-22T15:4:55Z</time></trkpt>
<trkpt lat="46.83920351257489" lon="6.601743987280066"><ele></ele><time>2014-6-22T15:4:58Z</time></trkpt>
<trkpt lat="46.83940619316956" lon="6.602396316037211"><ele></ele><time>2014-6-22T15:5:1Z</time></trkpt>
<trkpt lat="46.8395394006863" lon="6.603390577511152"><ele></ele><time>2014-6-22T15:5:4Z</time></trkpt>
<trkpt lat="46.839759487631206" lon="6.603963988643695"><ele></ele><time>2014-6-22T15:5:7Z</time></trkpt>
<trkpt lat="46.83988828470717" lon="6.6043552828728265"><ele></ele><time>2014-6-22T15:5:10Z</time></trkpt>
<trkpt lat="46.83994473934517" lon="6.604695260470457"><ele></ele><time>2014-6-22T15:5:13Z</time></trkpt>
<trkpt lat="46.84003602579017" lon="6.604877382829127"><ele></ele><time>2014-6-22T15:5:16Z</time></trkpt>
<trkpt lat="46.840069328989664" lon="6.604509794619563"><ele></ele><time>2014-6-22T15:5:19Z</time></trkpt>
<trkpt lat="46.840103778599605" lon="6.604299505083553"><ele></ele><time>2014-6-22T15:5:22Z</time></trkpt>
<trkpt lat="46.840046174726645" lon="6.603802227939838"><ele></ele><time>2014-6-22T15:5:25Z</time></trkpt>
<trkpt lat="46.84006186765386" lon="6.603487351028445"><ele></ele><time>2014-6-22T15:5:28Z</time></trkpt>
<trkpt lat="46.840077559714096" lon="6.603172473933305"><ele></ele><time>2014-6-22T15:5:31Z</time></trkpt>
<trkpt lat="46.84018339095218" lon="6.602882417062101"><ele></ele><time>2014-6-22T15:5:34Z</time></trkpt>
<trkpt lat="46.8401990813466" lon="6.602567539079542"><ele></ele><time>2014-6-22T15:5:37Z</time></trkpt>
<trkpt lat="46.84019793137237" lon="6.602410239708972"><ele></ele><time>2014-6-22T15:5:40Z</time></trkpt>
<trkpt lat="46.840196781181774" lon="6.602252940345078"><ele></ele><time>2014-6-22T15:5:43Z</time></trkpt>
<trkpt lat="46.840358496690776" lon="6.60222420881327"><ele></ele><time>2014-6-22T15:5:46Z</time></trkpt>
<trkpt lat="46.84046873508941" lon="6.602537132466017"><ele></ele><time>2014-6-22T15:5:49Z</time></trkpt>
<trkpt lat="46.8404714176187" lon="6.602904166193539"><ele></ele><time>2014-6-22T15:5:52Z</time></trkpt>
<trkpt lat="46.84060040978267" lon="6.603321679823161"><ele></ele><time>2014-6-22T15:5:55Z</time></trkpt>
<trkpt lat="46.840980107772445" lon="6.603577988625556"><ele></ele><time>2014-6-22T15:5:58Z</time></trkpt>
<trkpt lat="46.841304113660925" lon="6.603599183826748"><ele></ele><time>2014-6-22T15:6:1Z</time></trkpt>
<trkpt lat="46.841430998476" lon="6.603728316738942"><ele></ele><time>2014-6-22T15:6:4Z</time></trkpt>
<trkpt lat="46.84166735189889" lon="6.604065515096474"><ele></ele><time>2014-6-22T15:6:7Z</time></trkpt>
<trkpt lat="46.84192226765706" lon="6.604481089916536"><ele></ele><time>2014-6-22T15:6:10Z</time></trkpt>
<trkpt lat="46.84212225718846" lon="6.604766416811262"><ele></ele><time>2014-6-22T15:6:13Z</time></trkpt>
<trkpt lat="46.842231724282065" lon="6.604974485677362"><ele></ele><time>2014-6-22T15:6:16Z</time></trkpt>
<trkpt lat="46.842233825936006" lon="6.605262878855482"><ele></ele><time>2014-6-22T15:6:19Z</time></trkpt>
<trkpt lat="46.84214655123853" lon="6.60563131631678"><ele></ele><time>2014-6-22T15:6:22Z</time></trkpt>
<trkpt lat="46.842381371917675" lon="6.605758786414814"><ele></ele><time>2014-6-22T15:6:25Z</time></trkpt>
<trkpt lat="46.84254327917482" lon="6.605756281965507"><ele></ele><time>2014-6-22T15:6:28Z</time></trkpt>
<trkpt lat="46.84285063110636" lon="6.6059612942163675"><ele></ele><time>2014-6-22T15:6:31Z</time></trkpt>
<trkpt lat="46.843141137769784" lon="6.606323894993731"><ele></ele><time>2014-6-22T15:6:34Z</time></trkpt>
<trkpt lat="46.843505699391045" lon="6.606973787874368"><ele></ele><time>2014-6-22T15:6:37Z</time></trkpt>
<trkpt lat="46.84374318640943" lon="6.6074683233062395"><ele></ele><time>2014-6-22T15:6:40Z</time></trkpt>
<trkpt lat="46.843962681584735" lon="6.60796314064407"><ele></ele><time>2014-6-22T15:6:43Z</time></trkpt>
<trkpt lat="46.84423880723291" lon="6.608824189584575"><ele></ele><time>2014-6-22T15:6:46Z</time></trkpt>
<trkpt lat="46.844553375443894" lon="6.610025536617886"><ele></ele><time>2014-6-22T15:6:49Z</time></trkpt>
<trkpt lat="46.8446088638302" lon="6.610234455935481"><ele></ele><time>2014-6-22T15:6:52Z</time></trkpt>
<trkpt lat="46.8450809618744" lon="6.61083029564517"><ele></ele><time>2014-6-22T15:6:55Z</time></trkpt>
<trkpt lat="46.84531786322771" lon="6.61124620530241"><ele></ele><time>2014-6-22T15:6:58Z</time></trkpt>
<trkpt lat="46.84544834112827" lon="6.611873529709019"><ele></ele><time>2014-6-22T15:7:1Z</time></trkpt>
<trkpt lat="46.84572008147961" lon="6.612131578873262"><ele></ele><time>2014-6-22T15:7:4Z</time></trkpt>
<trkpt lat="46.84607949660334" lon="6.612073616746435"><ele></ele><time>2014-6-22T15:7:7Z</time></trkpt>
<trkpt lat="46.846366763396546" lon="6.611990539049338"><ele></ele><time>2014-6-22T15:7:10Z</time></trkpt>
<trkpt lat="46.84649401754339" lon="6.612172143209188"><ele></ele><time>2014-6-22T15:7:13Z</time></trkpt>
<trkpt lat="46.846569006658484" lon="6.6125905537825025"><ele></ele><time>2014-6-22T15:7:16Z</time></trkpt>
<trkpt lat="46.84669872030379" lon="6.613113016967404"><ele></ele><time>2014-6-22T15:7:19Z</time></trkpt>
<trkpt lat="46.847028965211976" lon="6.613999529363333"><ele></ele><time>2014-6-22T15:7:22Z</time></trkpt>
<trkpt lat="46.847469595622876" lon="6.615225263055588"><ele></ele><time>2014-6-22T15:7:25Z</time></trkpt>
<trkpt lat="46.848034821441104" lon="6.616265550737364"><ele></ele><time>2014-6-22T15:7:28Z</time></trkpt>
<trkpt lat="46.84827358671626" lon="6.616943712577122"><ele></ele><time>2014-6-22T15:7:31Z</time></trkpt>
<trkpt lat="46.848473733255425" lon="6.617255340080279"><ele></ele><time>2014-6-22T15:7:34Z</time></trkpt>
<trkpt lat="46.84856405833724" lon="6.617306409152828"><ele></ele><time>2014-6-22T15:7:37Z</time></trkpt>
<trkpt lat="46.84846845914197" lon="6.616521162132845"><ele></ele><time>2014-6-22T15:7:40Z</time></trkpt>
<trkpt lat="46.84831850817838" lon="6.615684301676805"><ele></ele><time>2014-6-22T15:7:43Z</time></trkpt>
<trkpt lat="46.848223464268386" lon="6.614977722658076"><ele></ele><time>2014-6-22T15:7:46Z</time></trkpt>
<trkpt lat="46.84807463584507" lon="6.614298192938576"><ele></ele><time>2014-6-22T15:7:49Z</time></trkpt>
<trkpt lat="46.84792523602237" lon="6.613540005884559"><ele></ele><time>2014-6-22T15:7:52Z</time></trkpt>
<trkpt lat="46.84777620976388" lon="6.612834263614821"><ele></ele><time>2014-6-22T15:7:55Z</time></trkpt>
<trkpt lat="46.84764611603228" lon="6.612259350196002"><ele></ele><time>2014-6-22T15:7:58Z</time></trkpt>
<trkpt lat="46.84764194728624" lon="6.611682505331784"><ele></ele><time>2014-6-22T15:8:1Z</time></trkpt>
<trkpt lat="46.84771106207394" lon="6.611288096265683"><ele></ele><time>2014-6-22T15:8:4Z</time></trkpt>
<trkpt lat="46.84769117562863" lon="6.611026170299048"><ele></ele><time>2014-6-22T15:8:7Z</time></trkpt>
<trkpt lat="46.84740144316286" lon="6.61076839388548"><ele></ele><time>2014-6-22T15:8:10Z</time></trkpt>
<trkpt lat="46.84714863853627" lon="6.610641166705779"><ele></ele><time>2014-6-22T15:8:13Z</time></trkpt>
<trkpt lat="46.84701986309834" lon="6.610249804661164"><ele></ele><time>2014-6-22T15:8:16Z</time></trkpt>
<trkpt lat="46.84679771737027" lon="6.609387872679393"><ele></ele><time>2014-6-22T15:8:19Z</time></trkpt>
<trkpt lat="46.846632007326136" lon="6.608865972016307"><ele></ele><time>2014-6-22T15:8:22Z</time></trkpt>
<trkpt lat="46.84622976384656" lon="6.607980607840627"><ele></ele><time>2014-6-22T15:8:25Z</time></trkpt>
<trkpt lat="46.84584607497279" lon="6.607173637038745"><ele></ele><time>2014-6-22T15:8:28Z</time></trkpt>
<trkpt lat="46.8455511840811" lon="6.60620797222548"><ele></ele><time>2014-6-22T15:8:31Z</time></trkpt>
<trkpt lat="46.84531178214225" lon="6.605451235107805"><ele></ele><time>2014-6-22T15:8:34Z</time></trkpt>
<trkpt lat="46.84519983205453" lon="6.604902306272754"><ele></ele><time>2014-6-22T15:8:37Z</time></trkpt>
<trkpt lat="46.845049796015026" lon="6.604065528988933"><ele></ele><time>2014-6-22T15:8:40Z</time></trkpt>
<trkpt lat="46.84460981214487" lon="6.602944816578389"><ele></ele><time>2014-6-22T15:8:43Z</time></trkpt>
<trkpt lat="46.84440751822771" lon="6.602344859916481"><ele></ele><time>2014-6-22T15:8:46Z</time></trkpt>
<trkpt lat="46.84429497772683" lon="6.601717291097042"><ele></ele><time>2014-6-22T15:8:49Z</time></trkpt>
<trkpt lat="46.84496941423532" lon="6.602913013194177"><ele></ele><time>2014-6-22T15:8:52Z</time></trkpt>
<trkpt lat="46.845680200115645" lon="6.604160646047893"><ele></ele><time>2014-6-22T15:8:55Z</time></trkpt>
<trkpt lat="46.846154049768884" lon="6.604992419587763"><ele></ele><time>2014-6-22T15:8:58Z</time></trkpt>
<trkpt lat="46.846481684662635" lon="6.60551179833089"><ele></ele><time>2014-6-22T15:9:1Z</time></trkpt>
<trkpt lat="46.84699131302575" lon="6.606316820066595"><ele></ele><time>2014-6-22T15:9:4Z</time></trkpt>
<trkpt lat="46.84742878633919" lon="6.607096748311684"><ele></ele><time>2014-6-22T15:9:7Z</time></trkpt>
<trkpt lat="46.84781095211162" lon="6.607693979989685"><ele></ele><time>2014-6-22T15:9:10Z</time></trkpt>
<trkpt lat="46.84817436368225" lon="6.608186615735873"><ele></ele><time>2014-6-22T15:9:13Z</time></trkpt>
<trkpt lat="46.848555762799656" lon="6.608678980807509"><ele></ele><time>2014-6-22T15:9:16Z</time></trkpt>
<trkpt lat="46.84873832249103" lon="6.609043297928606"><ele></ele><time>2014-6-22T15:9:19Z</time></trkpt>
<trkpt lat="46.848848161913985" lon="6.6093038426645645"><ele></ele><time>2014-6-22T15:9:22Z</time></trkpt>
<trkpt lat="46.84897466000176" lon="6.609380565404449"><ele></ele><time>2014-6-22T15:9:25Z</time></trkpt>
<trkpt lat="46.848991699203" lon="6.609249183967133"><ele></ele><time>2014-6-22T15:9:28Z</time></trkpt>
<trkpt lat="46.8487701168989" lon="6.608465886808123"><ele></ele><time>2014-6-22T15:9:31Z</time></trkpt>
<trkpt lat="46.84838547912584" lon="6.607527771622648"><ele></ele><time>2014-6-22T15:9:34Z</time></trkpt>
<trkpt lat="46.84820196157072" lon="6.60703235964815"><ele></ele><time>2014-6-22T15:9:37Z</time></trkpt>
<trkpt lat="46.84794705530615" lon="6.606616724258807"><ele></ele><time>2014-6-22T15:9:40Z</time></trkpt>
<trkpt lat="46.84763512472791" lon="6.605782404109515"><ele></ele><time>2014-6-22T15:9:43Z</time></trkpt>
<trkpt lat="46.84735916741243" lon="6.604947536493859"><ele></ele><time>2014-6-22T15:9:46Z</time></trkpt>
<trkpt lat="46.847009906098485" lon="6.603930253623232"><ele></ele><time>2014-6-22T15:9:49Z</time></trkpt>
<trkpt lat="46.84668015772497" lon="6.60312246246795"><ele></ele><time>2014-6-22T15:9:52Z</time></trkpt>
<trkpt lat="46.846349445045654" lon="6.602183583424544"><ele></ele><time>2014-6-22T15:9:55Z</time></trkpt>
<trkpt lat="46.846165328727174" lon="6.60160955001063"><ele></ele><time>2014-6-22T15:9:58Z</time></trkpt>
<trkpt lat="46.84596437171125" lon="6.6011931165795765"><ele></ele><time>2014-6-22T15:10:1Z</time></trkpt>
<trkpt lat="46.8456887651227" lon="6.600410736855219"><ele></ele><time>2014-6-22T15:10:4Z</time></trkpt>
<trkpt lat="46.84561296245741" lon="6.599887473326809"><ele></ele><time>2014-6-22T15:10:7Z</time></trkpt>
<trkpt lat="46.84524778342709" lon="6.599158945958379"><ele></ele><time>2014-6-22T15:10:10Z</time></trkpt>
<trkpt lat="46.84488337005978" lon="6.598535303790259"><ele></ele><time>2014-6-22T15:10:13Z</time></trkpt>
<trkpt lat="46.84444583821346" lon="6.597755481997422"><ele></ele><time>2014-6-22T15:10:16Z</time></trkpt>
<trkpt lat="46.84388237333236" lon="6.596977641379322"><ele></ele><time>2014-6-22T15:10:19Z</time></trkpt>
<trkpt lat="46.84348177559094" lon="6.596328374495972"><ele></ele><time>2014-6-22T15:10:22Z</time></trkpt>
<trkpt lat="46.84297226993608" lon="6.595549717688929"><ele></ele><time>2014-6-22T15:10:25Z</time></trkpt>
<trkpt lat="46.842624472522765" lon="6.59474232040613"><ele></ele><time>2014-6-22T15:10:28Z</time></trkpt>
<trkpt lat="46.84231342317146" lon="6.594039239357058"><ele></ele><time>2014-6-22T15:10:31Z</time></trkpt>
<trkpt lat="46.84189365639915" lon="6.593232991532909"><ele></ele><time>2014-6-22T15:10:34Z</time></trkpt>
<trkpt lat="46.841383741620994" lon="6.59240195278503"><ele></ele><time>2014-6-22T15:10:37Z</time></trkpt>
<trkpt lat="46.841074230722946" lon="6.591908637062038"><ele></ele><time>2014-6-22T15:10:40Z</time></trkpt>
<trkpt lat="46.840890451128814" lon="6.591387128754345"><ele></ele><time>2014-6-22T15:10:43Z</time></trkpt>
<trkpt lat="46.840760443811035" lon="6.590838557493193"><ele></ele><time>2014-6-22T15:10:46Z</time></trkpt>
<trkpt lat="46.84066699653306" lon="6.5903680722579985"><ele></ele><time>2014-6-22T15:10:49Z</time></trkpt>
<trkpt lat="46.84046813797214" lon="6.590240106457021"><ele></ele><time>2014-6-22T15:10:52Z</time></trkpt>
<trkpt lat="46.840269084759996" lon="6.590085925049225"><ele></ele><time>2014-6-22T15:10:55Z</time></trkpt>
<trkpt lat="46.84010523244684" lon="6.589826311797102"><ele></ele><time>2014-6-22T15:10:58Z</time></trkpt>
<trkpt lat="46.84003015999121" lon="6.589407983170548"><ele></ele><time>2014-6-22T15:11:1Z</time></trkpt>
<trkpt lat="46.839988532975745" lon="6.588648274632508"><ele></ele><time>2014-6-22T15:11:4Z</time></trkpt>
<trkpt lat="46.83991189656883" lon="6.588020217581102"><ele></ele><time>2014-6-22T15:11:7Z</time></trkpt>
<trkpt lat="46.8397998627404" lon="6.587471380050585"><ele></ele><time>2014-6-22T15:11:10Z</time></trkpt>
<trkpt lat="46.83948857330095" lon="6.5867421617367565"><ele></ele><time>2014-6-22T15:11:13Z</time></trkpt>
<trkpt lat="46.839359325221054" lon="6.5862984803556355"><ele></ele><time>2014-6-22T15:11:16Z</time></trkpt>
<trkpt lat="46.839141690754836" lon="6.586065953538696"><ele></ele><time>2014-6-22T15:11:19Z</time></trkpt>
<trkpt lat="46.83895592870125" lon="6.585282324927988"><ele></ele><time>2014-6-22T15:11:22Z</time></trkpt>
<trkpt lat="46.838991109711195" lon="6.585299384011233"><ele></ele><time>2014-6-22T15:11:25Z</time></trkpt>
<trkpt lat="46.838741412556395" lon="6.584385674504888"><ele></ele><time>2014-6-22T15:11:28Z</time></trkpt>
<trkpt lat="46.83857491113643" lon="6.58377217026209"><ele></ele><time>2014-6-22T15:11:31Z</time></trkpt>
<trkpt lat="46.83846306047253" lon="6.583249568579219"><ele></ele><time>2014-6-22T15:11:34Z</time></trkpt>
<trkpt lat="46.838231532531964" lon="6.582361807460533"><ele></ele><time>2014-6-22T15:11:37Z</time></trkpt>
<trkpt lat="46.83800205627296" lon="6.581749315412021"><ele></ele><time>2014-6-22T15:11:40Z</time></trkpt>
<trkpt lat="46.83769934271116" lon="6.5809675734283"><ele></ele><time>2014-6-22T15:11:43Z</time></trkpt>
<trkpt lat="46.83749870851869" lon="6.58060370774645"><ele></ele><time>2014-6-22T15:11:46Z</time></trkpt>
<trkpt lat="46.837331401047074" lon="6.579885369168547"><ele></ele><time>2014-6-22T15:11:49Z</time></trkpt>
<trkpt lat="46.837236047878925" lon="6.57916588860898"><ele></ele><time>2014-6-22T15:11:52Z</time></trkpt>
<trkpt lat="46.83713803311295" lon="6.578092508851289"><ele></ele><time>2014-6-22T15:11:55Z</time></trkpt>
<trkpt lat="46.836952917194566" lon="6.577400684936483"><ele></ele><time>2014-6-22T15:11:58Z</time></trkpt>
<trkpt lat="46.83675010315082" lon="6.576748475328146"><ele></ele><time>2014-6-22T15:12:1Z</time></trkpt>
<trkpt lat="46.83653730387093" lon="6.575965341230409"><ele></ele><time>2014-6-22T15:12:4Z</time></trkpt>
<trkpt lat="46.83642126938449" lon="6.5748922692455665"><ele></ele><time>2014-6-22T15:12:7Z</time></trkpt>
<trkpt lat="46.83629810919419" lon="6.574068384003456"><ele></ele><time>2014-6-22T15:12:10Z</time></trkpt>
<trkpt lat="46.83606759880732" lon="6.573324877235387"><ele></ele><time>2014-6-22T15:12:13Z</time></trkpt>
<trkpt lat="46.835654907869895" lon="6.572282801534397"><ele></ele><time>2014-6-22T15:12:16Z</time></trkpt>
<trkpt lat="46.83524121519577" lon="6.57110967182379"><ele></ele><time>2014-6-22T15:12:19Z</time></trkpt>
<trkpt lat="46.835101825667635" lon="6.570522028150726"><ele></ele><time>2014-6-22T15:12:22Z</time></trkpt>
<trkpt lat="46.83480425236285" lon="6.569242184701265"><ele></ele><time>2014-6-22T15:12:25Z</time></trkpt>
<trkpt lat="46.83475310974152" lon="6.568430283222628"><ele></ele><time>2014-6-22T15:12:28Z</time></trkpt>
<trkpt lat="46.83467567421192" lon="6.567710566938573"><ele></ele><time>2014-6-22T15:12:31Z</time></trkpt>
<trkpt lat="46.83444502276879" lon="6.566954002965672"><ele></ele><time>2014-6-22T15:12:34Z</time></trkpt>
<trkpt lat="46.83412701202601" lon="6.566539674748972"><ele></ele><time>2014-6-22T15:12:37Z</time></trkpt>
<trkpt lat="46.83367577357379" lon="6.566350345856287"><ele></ele><time>2014-6-22T15:12:40Z</time></trkpt>
<trkpt lat="46.833341966670424" lon="6.566224661697651"><ele></ele><time>2014-6-22T15:12:43Z</time></trkpt>
<trkpt lat="46.832909216370936" lon="6.566100579335302"><ele></ele><time>2014-6-22T15:12:46Z</time></trkpt>
<trkpt lat="46.83263507822132" lon="6.565541370363127"><ele></ele><time>2014-6-22T15:12:49Z</time></trkpt>
<trkpt lat="46.83240021296288" lon="6.564234379963265"><ele></ele><time>2014-6-22T15:12:52Z</time></trkpt>
<trkpt lat="46.832073180357796" lon="6.562640524335072"><ele></ele><time>2014-6-22T15:12:55Z</time></trkpt>
<trkpt lat="46.8319706952639" lon="6.561003711570214"><ele></ele><time>2014-6-22T15:12:58Z</time></trkpt>
<trkpt lat="46.832053612792066" lon="6.560084814086088"><ele></ele><time>2014-6-22T15:13:1Z</time></trkpt>
<trkpt lat="46.8321820000752" lon="6.559230711767542"><ele></ele><time>2014-6-22T15:13:4Z</time></trkpt>
<trkpt lat="46.83220667058939" lon="6.558928828444457"><ele></ele><time>2014-6-22T15:13:7Z</time></trkpt>
<trkpt lat="46.83208551019708" lon="6.558380274461803"><ele></ele><time>2014-6-22T15:13:10Z</time></trkpt>
<trkpt lat="46.832065204312514" lon="6.558079125355142"><ele></ele><time>2014-6-22T15:13:13Z</time></trkpt>
<trkpt lat="46.83215515262353" lon="6.558077657222083"><ele></ele><time>2014-6-22T15:13:16Z</time></trkpt>
<trkpt lat="46.83224741716268" lon="6.558377632722975"><ele></ele><time>2014-6-22T15:13:19Z</time></trkpt>
<trkpt lat="46.83262520006927" lon="6.558371468604751"><ele></ele><time>2014-6-22T15:13:22Z</time></trkpt>
<trkpt lat="46.83329729463022" lon="6.55803279851013"><ele></ele><time>2014-6-22T15:13:25Z</time></trkpt>
<trkpt lat="46.833905618152244" lon="6.557590294959931"><ele></ele><time>2014-6-22T15:13:28Z</time></trkpt>
<trkpt lat="46.83444278788301" lon="6.5572538114377155"><ele></ele><time>2014-6-22T15:13:31Z</time></trkpt>
<trkpt lat="46.8345505241735" lon="6.55722583433992"><ele></ele><time>2014-6-22T15:13:34Z</time></trkpt>
<trkpt lat="46.83513619605963" lon="6.55734735116285"><ele></ele><time>2014-6-22T15:13:37Z</time></trkpt>
<trkpt lat="46.83561320300104" lon="6.557308874826125"><ele></ele><time>2014-6-22T15:13:40Z</time></trkpt>
<trkpt lat="46.835613405017604" lon="6.557335088992257"><ele></ele><time>2014-6-22T15:13:43Z</time></trkpt>
<trkpt lat="46.83618927392605" lon="6.557351881997068"><ele></ele><time>2014-6-22T15:13:46Z</time></trkpt>
<trkpt lat="46.836965653835044" lon="6.557706229541992"><ele></ele><time>2014-6-22T15:13:49Z</time></trkpt>
<trkpt lat="46.8377962031717" lon="6.558085919982891"><ele></ele><time>2014-6-22T15:13:52Z</time></trkpt>
<trkpt lat="46.83868031639257" lon="6.558412308647832"><ele></ele><time>2014-6-22T15:13:55Z</time></trkpt>
<trkpt lat="46.83911388212453" lon="6.558641193700768"><ele></ele><time>2014-6-22T15:13:58Z</time></trkpt>
<trkpt lat="46.83931297774807" lon="6.5587952555316145"><ele></ele><time>2014-6-22T15:14:1Z</time></trkpt>
<trkpt lat="46.8397449294741" lon="6.558814416885448"><ele></ele><time>2014-6-22T15:14:4Z</time></trkpt>
<trkpt lat="46.84028643184367" lon="6.559041546478031"><ele></ele><time>2014-6-22T15:14:7Z</time></trkpt>
<trkpt lat="46.84080994413849" lon="6.559268974440067"><ele></ele><time>2014-6-22T15:14:10Z</time></trkpt>
<trkpt lat="46.841098785248015" lon="6.559395357859524"><ele></ele><time>2014-6-22T15:14:13Z</time></trkpt>
<trkpt lat="46.84142400838401" lon="6.559573589208336"><ele></ele><time>2014-6-22T15:14:16Z</time></trkpt>
<trkpt lat="46.84174782086527" lon="6.559568302574542"><ele></ele><time>2014-6-22T15:14:19Z</time></trkpt>
<trkpt lat="46.84226992171555" lon="6.559612219919334"><ele></ele><time>2014-6-22T15:14:22Z</time></trkpt>
<trkpt lat="46.84256017247661" lon="6.559922131515914"><ele></ele><time>2014-6-22T15:14:25Z</time></trkpt>
<trkpt lat="46.84286961995429" lon="6.56038905922976"><ele></ele><time>2014-6-22T15:14:28Z</time></trkpt>
<trkpt lat="46.84343333370279" lon="6.561166502206906"><ele></ele><time>2014-6-22T15:14:31Z</time></trkpt>
<trkpt lat="46.84390548636648" lon="6.5617356803031415"><ele></ele><time>2014-6-22T15:14:34Z</time></trkpt>
<trkpt lat="46.8441759330819" lon="6.561809940474781"><ele></ele><time>2014-6-22T15:14:37Z</time></trkpt>
<trkpt lat="46.844483363678506" lon="6.562014708016972"><ele></ele><time>2014-6-22T15:14:40Z</time></trkpt>
<trkpt lat="46.84480878347649" lon="6.56221918506447"><ele></ele><time>2014-6-22T15:14:43Z</time></trkpt>
<trkpt lat="46.845132796820195" lon="6.562240132838801"><ele></ele><time>2014-6-22T15:14:46Z</time></trkpt>
<trkpt lat="46.845528768463424" lon="6.56225990956996"><ele></ele><time>2014-6-22T15:14:49Z</time></trkpt>
<trkpt lat="46.845708061573355" lon="6.562178324015308"><ele></ele><time>2014-6-22T15:14:52Z</time></trkpt>
<trkpt lat="46.84595730341347" lon="6.561833374180079"><ele></ele><time>2014-6-22T15:14:55Z</time></trkpt>
<trkpt lat="46.846082225465665" lon="6.561700226985311"><ele></ele><time>2014-6-22T15:14:58Z</time></trkpt>
<trkpt lat="46.846081421367664" lon="6.561595349864346"><ele></ele><time>2014-6-22T15:15:1Z</time></trkpt>
<trkpt lat="46.845934689662855" lon="6.561230625335881"><ele></ele><time>2014-6-22T15:15:4Z</time></trkpt>
<trkpt lat="46.845734189266736" lon="6.560893001777722"><ele></ele><time>2014-6-22T15:15:7Z</time></trkpt>
<trkpt lat="46.84544313614179" lon="6.5604781908070935"><ele></ele><time>2014-6-22T15:15:10Z</time></trkpt>
<trkpt lat="46.845134091925864" lon="6.56006367787864"><ele></ele><time>2014-6-22T15:15:13Z</time></trkpt>
<trkpt lat="46.844822829520815" lon="6.559360764453745"><ele></ele><time>2014-6-22T15:15:16Z</time></trkpt>
<trkpt lat="46.84429407404073" lon="6.558451640228149"><ele></ele><time>2014-6-22T15:15:19Z</time></trkpt>
<trkpt lat="46.84396662914175" lon="6.557985005536669"><ele></ele><time>2014-6-22T15:15:22Z</time></trkpt>
<trkpt lat="46.84363958625436" lon="6.55757081267321"><ele></ele><time>2014-6-22T15:15:25Z</time></trkpt>
<trkpt lat="46.84320379615717" lon="6.557053520499481"><ele></ele><time>2014-6-22T15:15:28Z</time></trkpt>
<trkpt lat="46.84287674986175" lon="6.5566393391651046"><ele></ele><time>2014-6-22T15:15:31Z</time></trkpt>
<trkpt lat="46.842497149062815" lon="6.5564095699379585"><ele></ele><time>2014-6-22T15:15:34Z</time></trkpt>
<trkpt lat="46.842133514272035" lon="6.555917335743805"><ele></ele><time>2014-6-22T15:15:37Z</time></trkpt>
<trkpt lat="46.84187801721929" lon="6.555449554876296"><ele></ele><time>2014-6-22T15:15:40Z</time></trkpt>
<trkpt lat="46.84156996725361" lon="6.555166183561827"><ele></ele><time>2014-6-22T15:15:43Z</time></trkpt>
<trkpt lat="46.84124433214047" lon="6.554935544555773"><ele></ele><time>2014-6-22T15:15:46Z</time></trkpt>
<trkpt lat="46.84093607824289" lon="6.554625962770833"><ele></ele><time>2014-6-22T15:15:49Z</time></trkpt>
<trkpt lat="46.84062539059697" lon="6.554001785384049"><ele></ele><time>2014-6-22T15:15:52Z</time></trkpt>
<trkpt lat="46.840262151117756" lon="6.553562017401374"><ele></ele><time>2014-6-22T15:15:55Z</time></trkpt>
<trkpt lat="46.83969919760876" lon="6.552889564405735"><ele></ele><time>2014-6-22T15:15:58Z</time></trkpt>
<trkpt lat="46.83936949491113" lon="6.552134627630077"><ele></ele><time>2014-6-22T15:16:1Z</time></trkpt>
<trkpt lat="46.83896640514863" lon="6.55119737536332"><ele></ele><time>2014-6-22T15:16:4Z</time></trkpt>
<trkpt lat="46.83847397073078" lon="6.550340267711871"><ele></ele><time>2014-6-22T15:16:7Z</time></trkpt>
<trkpt lat="46.837821254077625" lon="6.549695570909755"><ele></ele><time>2014-6-22T15:16:10Z</time></trkpt>
<trkpt lat="46.83727320775021" lon="6.548629667479603"><ele></ele><time>2014-6-22T15:16:13Z</time></trkpt>
<trkpt lat="46.83680037699028" lon="6.547982030321377"><ele></ele><time>2014-6-22T15:16:16Z</time></trkpt>
<trkpt lat="46.83634430615041" lon="6.547176819867524"><ele></ele><time>2014-6-22T15:16:19Z</time></trkpt>
<trkpt lat="46.83581811185864" lon="6.546608743406761"><ele></ele><time>2014-6-22T15:16:22Z</time></trkpt>
<trkpt lat="46.83558281608737" lon="6.546429118638371"><ele></ele><time>2014-6-22T15:16:25Z</time></trkpt>
<trkpt lat="46.83529314221523" lon="6.546197961860305"><ele></ele><time>2014-6-22T15:16:28Z</time></trkpt>
<trkpt lat="46.835293039931145" lon="6.546184854875934"><ele></ele><time>2014-6-22T15:16:31Z</time></trkpt>
<trkpt lat="46.83534711090469" lon="6.546197067449733"><ele></ele><time>2014-6-22T15:16:34Z</time></trkpt>
<trkpt lat="46.8348672132988" lon="6.5458424480250645"><ele></ele><time>2014-6-22T15:16:37Z</time></trkpt>
<trkpt lat="46.83502738358768" lon="6.545616951184339"><ele></ele><time>2014-6-22T15:16:40Z</time></trkpt>
<trkpt lat="46.83461413351304" lon="6.544535787480496"><ele></ele><time>2014-6-22T15:16:43Z</time></trkpt>
<trkpt lat="46.83428989966152" lon="6.543335187317012"><ele></ele><time>2014-6-22T15:16:46Z</time></trkpt>
<trkpt lat="46.834165794697434" lon="6.542419660033407"><ele></ele><time>2014-6-22T15:16:49Z</time></trkpt>
<trkpt lat="46.834004676894715" lon="6.541373668888888"><ele></ele><time>2014-6-22T15:16:52Z</time></trkpt>
<trkpt lat="46.83391010869996" lon="6.540785367114817"><ele></ele><time>2014-6-22T15:16:55Z</time></trkpt>
<trkpt lat="46.834105426388334" lon="6.540454406944681"><ele></ele><time>2014-6-22T15:16:58Z</time></trkpt>
<trkpt lat="46.83387284646733" lon="6.539475155359969"><ele></ele><time>2014-6-22T15:17:1Z</time></trkpt>
<trkpt lat="46.833399457445104" lon="6.538762094353092"><ele></ele><time>2014-6-22T15:17:4Z</time></trkpt>
<trkpt lat="46.83308021171571" lon="6.53820377008102"><ele></ele><time>2014-6-22T15:17:7Z</time></trkpt>
<trkpt lat="46.832762302938306" lon="6.537815834750599"><ele></ele><time>2014-6-22T15:17:10Z</time></trkpt>
<trkpt lat="46.8325976137562" lon="6.53746466840791"><ele></ele><time>2014-6-22T15:17:13Z</time></trkpt>
<trkpt lat="46.832726863938205" lon="6.536741566751053"><ele></ele><time>2014-6-22T15:17:16Z</time></trkpt>
<trkpt lat="46.83270474648236" lon="6.536217614829686"><ele></ele><time>2014-6-22T15:17:19Z</time></trkpt>
<trkpt lat="46.83244927819729" lon="6.53576310895352"><ele></ele><time>2014-6-22T15:17:22Z</time></trkpt>
<trkpt lat="46.831994889088556" lon="6.5351808595044325"><ele></ele><time>2014-6-22T15:17:25Z</time></trkpt>
<trkpt lat="46.83153791122916" lon="6.534270969154014"><ele></ele><time>2014-6-22T15:17:28Z</time></trkpt>
<trkpt lat="46.83119858334913" lon="6.5334508736540835"><ele></ele><time>2014-6-22T15:17:31Z</time></trkpt>
<trkpt lat="46.83103097981665" lon="6.532732765568561"><ele></ele><time>2014-6-22T15:17:34Z</time></trkpt>
<trkpt lat="46.83100780707224" lon="6.53207777282773"><ele></ele><time>2014-6-22T15:17:37Z</time></trkpt>
<trkpt lat="46.83074869003388" lon="6.531164596802433"><ele></ele><time>2014-6-22T15:17:40Z</time></trkpt>
<trkpt lat="46.83033613458834" lon="6.530188475652807"><ele></ele><time>2014-6-22T15:17:43Z</time></trkpt>
<trkpt lat="46.82983414295783" lon="6.529279413745596"><ele></ele><time>2014-6-22T15:17:46Z</time></trkpt>
<trkpt lat="46.829722875970475" lon="6.52886185465662"><ele></ele><time>2014-6-22T15:17:49Z</time></trkpt>
<trkpt lat="46.82933006127231" lon="6.52810825917877"><ele></ele><time>2014-6-22T15:17:52Z</time></trkpt>
<trkpt lat="46.828900845435754" lon="6.527302860934806"><ele></ele><time>2014-6-22T15:17:55Z</time></trkpt>
<trkpt lat="46.82835333504544" lon="6.526329084411177"><ele></ele><time>2014-6-22T15:17:58Z</time></trkpt>
<trkpt lat="46.828098036166665" lon="6.525900872491868"><ele></ele><time>2014-6-22T15:18:1Z</time></trkpt>
<trkpt lat="46.827535450159786" lon="6.525294370435944"><ele></ele><time>2014-6-22T15:18:4Z</time></trkpt>
<trkpt lat="46.82682779410114" lon="6.524546165529671"><ele></ele><time>2014-6-22T15:18:7Z</time></trkpt>
<trkpt lat="46.826401901261356" lon="6.524160185362834"><ele></ele><time>2014-6-22T15:18:10Z</time></trkpt>
<trkpt lat="46.82591785108024" lon="6.523250940794607"><ele></ele><time>2014-6-22T15:18:13Z</time></trkpt>
<trkpt lat="46.8256401497573" lon="6.5222726761668985"><ele></ele><time>2014-6-22T15:18:16Z</time></trkpt>
<trkpt lat="46.82558835910717" lon="6.521421643749694"><ele></ele><time>2014-6-22T15:18:19Z</time></trkpt>
<trkpt lat="46.82533794159385" lon="6.52048224877564"><ele></ele><time>2014-6-22T15:18:22Z</time></trkpt>
<trkpt lat="46.82491644478009" lon="6.519528444326112"><ele></ele><time>2014-6-22T15:18:25Z</time></trkpt>
<trkpt lat="46.824698321931656" lon="6.519248051571819"><ele></ele><time>2014-6-22T15:18:28Z</time></trkpt>
<trkpt lat="46.824890946887194" lon="6.518589460330938"><ele></ele><time>2014-6-22T15:18:31Z</time></trkpt>
<trkpt lat="46.824911297811305" lon="6.5177634238173745"><ele></ele><time>2014-6-22T15:18:34Z</time></trkpt>
<trkpt lat="46.824739166649664" lon="6.516495065981075"><ele></ele><time>2014-6-22T15:18:37Z</time></trkpt>
<trkpt lat="46.824549771233904" lon="6.515318754186032"><ele></ele><time>2014-6-22T15:18:40Z</time></trkpt>
<trkpt lat="46.82445739374682" lon="6.515018895300114"><ele></ele><time>2014-6-22T15:18:43Z</time></trkpt>
<trkpt lat="46.8240870295481" lon="6.5137146366232015"><ele></ele><time>2014-6-22T15:18:46Z</time></trkpt>
<trkpt lat="46.82398914224594" lon="6.512733367143699"><ele></ele><time>2014-6-22T15:18:49Z</time></trkpt>
<trkpt lat="46.8240579223295" lon="6.512339007212027"><ele></ele><time>2014-6-22T15:18:52Z</time></trkpt>
<trkpt lat="46.82450585974588" lon="6.512108513036548"><ele></ele><time>2014-6-22T15:18:55Z</time></trkpt>
<trkpt lat="46.82515581521578" lon="6.512385688733239"><ele></ele><time>2014-6-22T15:18:58Z</time></trkpt>
<trkpt lat="46.825770426364954" lon="6.512742116142563"><ele></ele><time>2014-6-22T15:19:1Z</time></trkpt>
<trkpt lat="46.82655636063217" lon="6.513148038928469"><ele></ele><time>2014-6-22T15:19:4Z</time></trkpt>
<trkpt lat="46.826943136091636" lon="6.51314140396686"><ele></ele><time>2014-6-22T15:19:7Z</time></trkpt>
<trkpt lat="46.82711932529158" lon="6.512679645944776"><ele></ele><time>2014-6-22T15:19:10Z</time></trkpt>
<trkpt lat="46.82690375478611" lon="6.511608598164219"><ele></ele><time>2014-6-22T15:19:13Z</time></trkpt>
<trkpt lat="46.8265790690215" lon="6.510395263243909"><ele></ele><time>2014-6-22T15:19:16Z</time></trkpt>
<trkpt lat="46.82628146101955" lon="6.509194582762514"><ele></ele><time>2014-6-22T15:19:19Z</time></trkpt>
<trkpt lat="46.8257353926848" lon="6.508417606115319"><ele></ele><time>2014-6-22T15:19:22Z</time></trkpt>
<trkpt lat="46.825052799794875" lon="6.507446407457908"><ele></ele><time>2014-6-22T15:19:25Z</time></trkpt>
<trkpt lat="46.82482174973465" lon="6.5066902367342125"><ele></ele><time>2014-6-22T15:19:28Z</time></trkpt>
<trkpt lat="46.8244719486253" lon="6.505713321643254"><ele></ele><time>2014-6-22T15:19:31Z</time></trkpt>
<trkpt lat="46.824133056661594" lon="6.504972138607648"><ele></ele><time>2014-6-22T15:19:34Z</time></trkpt>
<trkpt lat="46.823694896743135" lon="6.504193366300399"><ele></ele><time>2014-6-22T15:19:37Z</time></trkpt>
<trkpt lat="46.823467568552445" lon="6.503895868796465"><ele></ele><time>2014-6-22T15:19:40Z</time></trkpt>
<trkpt lat="46.823177383159276" lon="6.503612568936436"><ele></ele><time>2014-6-22T15:19:43Z</time></trkpt>
<trkpt lat="46.822967507989304" lon="6.503249245456411"><ele></ele><time>2014-6-22T15:19:46Z</time></trkpt>
<trkpt lat="46.82258705217755" lon="6.502928200229068"><ele></ele><time>2014-6-22T15:19:49Z</time></trkpt>
<trkpt lat="46.822269558829184" lon="6.502606067199184"><ele></ele><time>2014-6-22T15:19:52Z</time></trkpt>
<trkpt lat="46.82195131473463" lon="6.502192212521413"><ele></ele><time>2014-6-22T15:19:55Z</time></trkpt>
<trkpt lat="46.8210502308302" lon="6.502011272691455"><ele></ele><time>2014-6-22T15:19:58Z</time></trkpt>
<trkpt lat="46.82014914654051" lon="6.501830338920161"><ele></ele><time>2014-6-22T15:20:1Z</time></trkpt>
<trkpt lat="46.819581404292244" lon="6.501709147073281"><ele></ele><time>2014-6-22T15:20:4Z</time></trkpt>
<trkpt lat="46.81897628916227" lon="6.50141824478805"><ele></ele><time>2014-6-22T15:20:7Z</time></trkpt>
<trkpt lat="46.81800163687616" lon="6.5010420379467595"><ele></ele><time>2014-6-22T15:20:10Z</time></trkpt>
<trkpt lat="46.81703436836669" lon="6.500469151824995"><ele></ele><time>2014-6-22T15:20:13Z</time></trkpt>
<trkpt lat="46.816057350361916" lon="6.499804727383273"><ele></ele><time>2014-6-22T15:20:16Z</time></trkpt>
<trkpt lat="46.81594941309977" lon="6.499806605361884"><ele></ele><time>2014-6-22T15:20:19Z</time></trkpt>
<trkpt lat="46.81618555082181" lon="6.501178426828417"><ele></ele><time>2014-6-22T15:20:22Z</time></trkpt>
<trkpt lat="46.81618844574336" lon="6.5015321870740905"><ele></ele><time>2014-6-22T15:20:25Z</time></trkpt>
<trkpt lat="46.8157408506943" lon="6.501802039999068"><ele></ele><time>2014-6-22T15:20:28Z</time></trkpt>
<trkpt lat="46.81468139593893" lon="6.502056300605419"><ele></ele><time>2014-6-22T15:20:31Z</time></trkpt>
<trkpt lat="46.81390045725371" lon="6.502266407892282"><ele></ele><time>2014-6-22T15:20:34Z</time></trkpt>
<trkpt lat="46.81301918323805" lon="6.502307906554086"><ele></ele><time>2014-6-22T15:20:37Z</time></trkpt>
<trkpt lat="46.81232658526664" lon="6.50231992394855"><ele></ele><time>2014-6-22T15:20:40Z</time></trkpt>
<trkpt lat="46.811521338188015" lon="6.502858013816445"><ele></ele><time>2014-6-22T15:20:43Z</time></trkpt>
<trkpt lat="46.81087840875678" lon="6.50454632068795"><ele></ele><time>2014-6-22T15:20:46Z</time></trkpt>
<trkpt lat="46.81070993782211" lon="6.505951231443033"><ele></ele><time>2014-6-22T15:20:49Z</time></trkpt>
<trkpt lat="46.81061404709928" lon="6.507433496955388"><ele></ele><time>2014-6-22T15:20:52Z</time></trkpt>
<trkpt lat="46.81040216201425" lon="6.50903567924265"><ele></ele><time>2014-6-22T15:20:55Z</time></trkpt>
<trkpt lat="46.81014167034134" lon="6.5101931957879335"><ele></ele><time>2014-6-22T15:20:58Z</time></trkpt>
<trkpt lat="46.81016411930639" lon="6.510743119223343"><ele></ele><time>2014-6-22T15:21:1Z</time></trkpt>
<trkpt lat="46.8102006505929" lon="6.511921726715711"><ele></ele><time>2014-6-22T15:21:4Z</time></trkpt>
<trkpt lat="46.81029748597936" lon="6.51277173540924"><ele></ele><time>2014-6-22T15:21:7Z</time></trkpt>
<trkpt lat="46.81035336093046" lon="6.514120349830679"><ele></ele><time>2014-6-22T15:21:10Z</time></trkpt>
<trkpt lat="46.810588799143844" lon="6.515426586985829"><ele></ele><time>2014-6-22T15:21:13Z</time></trkpt>
<trkpt lat="46.8110540473379" lon="6.517344741699523"><ele></ele><time>2014-6-22T15:21:16Z</time></trkpt>
<trkpt lat="46.811486808147635" lon="6.518582130835259"><ele></ele><time>2014-6-22T15:21:19Z</time></trkpt>
<trkpt lat="46.811970160248066" lon="6.519399381232315"><ele></ele><time>2014-6-22T15:21:22Z</time></trkpt>
<trkpt lat="46.81215531208068" lon="6.52005138119747"><ele></ele><time>2014-6-22T15:21:25Z</time></trkpt>
<trkpt lat="46.81245312148519" lon="6.521291110883426"><ele></ele><time>2014-6-22T15:21:28Z</time></trkpt>
<trkpt lat="46.81271389020351" lon="6.522400450773258"><ele></ele><time>2014-6-22T15:21:31Z</time></trkpt>
<trkpt lat="46.8129196324189" lon="6.523379701796086"><ele></ele><time>2014-6-22T15:21:34Z</time></trkpt>
<trkpt lat="46.81297036251888" lon="6.524099521068443"><ele></ele><time>2014-6-22T15:21:37Z</time></trkpt>
<trkpt lat="46.81306574852976" lon="6.524779275570019"><ele></ele><time>2014-6-22T15:21:40Z</time></trkpt>
<trkpt lat="46.81301114298677" lon="6.525828462160017"><ele></ele><time>2014-6-22T15:21:43Z</time></trkpt>
<trkpt lat="46.81276586352788" lon="6.5266581133617665"><ele></ele><time>2014-6-22T15:21:46Z</time></trkpt>
<trkpt lat="46.81235113561726" lon="6.527674061367247"><ele></ele><time>2014-6-22T15:21:49Z</time></trkpt>
<trkpt lat="46.81195365963553" lon="6.528597981620085"><ele></ele><time>2014-6-22T15:21:52Z</time></trkpt>
<trkpt lat="46.8113490874" lon="6.52949917109031"><ele></ele><time>2014-6-22T15:21:55Z</time></trkpt>
<trkpt lat="46.810856140163395" lon="6.5297302218984346"><ele></ele><time>2014-6-22T15:21:58Z</time></trkpt>
<trkpt lat="46.81021111201158" lon="6.5300686497673075"><ele></ele><time>2014-6-22T15:22:1Z</time></trkpt>
<trkpt lat="46.80991636129403" lon="6.530335662177993"><ele></ele><time>2014-6-22T15:22:4Z</time></trkpt>
<trkpt lat="46.80951917507823" lon="6.5312988230580675"><ele></ele><time>2014-6-22T15:22:7Z</time></trkpt>
<trkpt lat="46.80928046528583" lon="6.531826930449529"><ele></ele><time>2014-6-22T15:22:10Z</time></trkpt>
<trkpt lat="46.80903244721177" lon="6.532315882553234"><ele></ele><time>2014-6-22T15:22:13Z</time></trkpt>
<trkpt lat="46.8085233699073" lon="6.532783007397644"><ele></ele><time>2014-6-22T15:22:16Z</time></trkpt>
<trkpt lat="46.807909649168096" lon="6.5325312678309215"><ele></ele><time>2014-6-22T15:22:19Z</time></trkpt>
<trkpt lat="46.807412134769095" lon="6.532185869202371"><ele></ele><time>2014-6-22T15:22:22Z</time></trkpt>
<trkpt lat="46.80695948969191" lon="6.531826621277981"><ele></ele><time>2014-6-22T15:22:25Z</time></trkpt>
<trkpt lat="46.806443672146315" lon="6.5314422378536285"><ele></ele><time>2014-6-22T15:22:28Z</time></trkpt>
<trkpt lat="46.80603423373552" lon="6.53085954944278"><ele></ele><time>2014-6-22T15:22:31Z</time></trkpt>
<trkpt lat="46.80586661342684" lon="6.530141784750668"><ele></ele><time>2014-6-22T15:22:34Z</time></trkpt>
<trkpt lat="46.80559188272658" lon="6.529530640500172"><ele></ele><time>2014-6-22T15:22:37Z</time></trkpt>
<trkpt lat="46.805255953839634" lon="6.52914325739615"><ele></ele><time>2014-6-22T15:22:40Z</time></trkpt>
<trkpt lat="46.80498558895195" lon="6.529082306698104"><ele></ele><time>2014-6-22T15:22:43Z</time></trkpt>
<trkpt lat="46.80459693853594" lon="6.528853034207344"><ele></ele><time>2014-6-22T15:22:46Z</time></trkpt>
<trkpt lat="46.80423329400801" lon="6.528374421881974"><ele></ele><time>2014-6-22T15:22:49Z</time></trkpt>
<trkpt lat="46.80395876219902" lon="6.527789503781513"><ele></ele><time>2014-6-22T15:22:52Z</time></trkpt>
<trkpt lat="46.80350433095143" lon="6.527207629436"><ele></ele><time>2014-6-22T15:22:55Z</time></trkpt>
<trkpt lat="46.803078967391414" lon="6.5268872908153535"><ele></ele><time>2014-6-22T15:22:58Z</time></trkpt>
<trkpt lat="46.80276414861417" lon="6.526892608740476"><ele></ele><time>2014-6-22T15:23:1Z</time></trkpt>
<trkpt lat="46.80235385191122" lon="6.5262052033456195"><ele></ele><time>2014-6-22T15:23:4Z</time></trkpt>
<trkpt lat="46.80196498680672" lon="6.525949765159694"><ele></ele><time>2014-6-22T15:23:7Z</time></trkpt>
<trkpt lat="46.80142425338036" lon="6.5258279038688904"><ele></ele><time>2014-6-22T15:23:10Z</time></trkpt>
<trkpt lat="46.80104699289412" lon="6.525899785595378"><ele></ele><time>2014-6-22T15:23:13Z</time></trkpt>
<trkpt lat="46.80057026727011" lon="6.5259078468665"><ele></ele><time>2014-6-22T15:23:16Z</time></trkpt>
<trkpt lat="46.80037060601567" lon="6.525688519638675"><ele></ele><time>2014-6-22T15:23:19Z</time></trkpt>
<trkpt lat="46.799707924347686" lon="6.5249399255034755"><ele></ele><time>2014-6-22T15:23:22Z</time></trkpt>
<trkpt lat="46.79921038655285" lon="6.5245946495274305"><ele></ele><time>2014-6-22T15:23:25Z</time></trkpt>
<trkpt lat="46.79901116721333" lon="6.524430999625981"><ele></ele><time>2014-6-22T15:23:28Z</time></trkpt>
<trkpt lat="46.7991143714474" lon="6.523836481352558"><ele></ele><time>2014-6-22T15:23:31Z</time></trkpt>
<trkpt lat="46.79931685593182" lon="6.52328285192757"><ele></ele><time>2014-6-22T15:23:34Z</time></trkpt>
<trkpt lat="46.79946872073005" lon="6.523149276768141"><ele></ele><time>2014-6-22T15:23:37Z</time></trkpt>
<trkpt lat="46.79951107627566" lon="6.522821058499798"><ele></ele><time>2014-6-22T15:23:40Z</time></trkpt>
<trkpt lat="46.79968751473632" lon="6.522385763641427"><ele></ele><time>2014-6-22T15:23:43Z</time></trkpt>
<trkpt lat="46.79981771900599" lon="6.521794050213174"><ele></ele><time>2014-6-22T15:23:46Z</time></trkpt>
<trkpt lat="46.79990032199513" lon="6.52087564057109"><ele></ele><time>2014-6-22T15:23:49Z</time></trkpt>
<trkpt lat="46.79984883602934" lon="6.520064310814939"><ele></ele><time>2014-6-22T15:23:52Z</time></trkpt>
<trkpt lat="46.79987077506061" lon="6.519435133146841"><ele></ele><time>2014-6-22T15:23:55Z</time></trkpt>
<trkpt lat="46.79997482130237" lon="6.518948656994216"><ele></ele><time>2014-6-22T15:23:58Z</time></trkpt>
<trkpt lat="46.80004362300273" lon="6.518554480700221"><ele></ele><time>2014-6-22T15:24:1Z</time></trkpt>
<trkpt lat="46.800101322333305" lon="6.517898489719683"><ele></ele><time>2014-6-22T15:24:4Z</time></trkpt>
<trkpt lat="46.80016801271302" lon="6.517242343790583"><ele></ele><time>2014-6-22T15:24:7Z</time></trkpt>
<trkpt lat="46.80011639547993" lon="6.516417915116372"><ele></ele><time>2014-6-22T15:24:10Z</time></trkpt>
<trkpt lat="46.80008307868359" lon="6.515632475415957"><ele></ele><time>2014-6-22T15:24:13Z</time></trkpt>
<trkpt lat="46.80016563218964" lon="6.514714051800037"><ele></ele><time>2014-6-22T15:24:16Z</time></trkpt>
<trkpt lat="46.800279393334186" lon="6.5143190985458395"><ele></ele><time>2014-6-22T15:24:19Z</time></trkpt>
<trkpt lat="46.80034003045955" lon="6.514029855435264"><ele></ele><time>2014-6-22T15:24:22Z</time></trkpt>
<trkpt lat="46.8002278608575" lon="6.513507769338201"><ele></ele><time>2014-6-22T15:24:25Z</time></trkpt>
<trkpt lat="46.80004637713391" lon="6.513314377692926"><ele></ele><time>2014-6-22T15:24:28Z</time></trkpt>
<trkpt lat="46.800001403098605" lon="6.513315148684182"><ele></ele><time>2014-6-22T15:24:31Z</time></trkpt>
<trkpt lat="46.800140029036925" lon="6.5137712780799"><ele></ele><time>2014-6-22T15:24:34Z</time></trkpt>
<trkpt lat="46.80005558039608" lon="6.514453932663355"><ele></ele><time>2014-6-22T15:24:37Z</time></trkpt>
<trkpt lat="46.79978922403975" lon="6.51489079581318"><ele></ele><time>2014-6-22T15:24:40Z</time></trkpt>
<trkpt lat="46.79954233415084" lon="6.51551072189354"><ele></ele><time>2014-6-22T15:24:43Z</time></trkpt>
<trkpt lat="46.79950263813552" lon="6.516166401188477"><ele></ele><time>2014-6-22T15:24:46Z</time></trkpt>
<trkpt lat="46.79939997467411" lon="6.51682315479483"><ele></ele><time>2014-6-22T15:24:49Z</time></trkpt>
<trkpt lat="46.79935552783281" lon="6.516889413697464"><ele></ele><time>2014-6-22T15:24:52Z</time></trkpt>
<trkpt lat="46.799225348932424" lon="6.517481133905544"><ele></ele><time>2014-6-22T15:24:55Z</time></trkpt>
<trkpt lat="46.79905282504798" lon="6.518401070724441"><ele></ele><time>2014-6-22T15:24:58Z</time></trkpt>
<trkpt lat="46.79883479385055" lon="6.519256277375501"><ele></ele><time>2014-6-22T15:25:1Z</time></trkpt>
<trkpt lat="46.79858767007209" lon="6.5198499764982625"><ele></ele><time>2014-6-22T15:25:4Z</time></trkpt>
<trkpt lat="46.7984392761359" lon="6.520415791223362"><ele></ele><time>2014-6-22T15:25:7Z</time></trkpt>
<trkpt lat="46.79790431210535" lon="6.521014373734106"><ele></ele><time>2014-6-22T15:25:10Z</time></trkpt>
<trkpt lat="46.79745740468119" lon="6.521375657384332"><ele></ele><time>2014-6-22T15:25:13Z</time></trkpt>
<trkpt lat="46.797075137817416" lon="6.521945427552264"><ele></ele><time>2014-6-22T15:25:16Z</time></trkpt>
<trkpt lat="46.79672006215616" lon="6.522540926758159"><ele></ele><time>2014-6-22T15:25:19Z</time></trkpt>
<trkpt lat="46.796498544183244" lon="6.522963862540192"><ele></ele><time>2014-6-22T15:25:22Z</time></trkpt>
<trkpt lat="46.796347203178705" lon="6.523162918117656"><ele></ele><time>2014-6-22T15:25:25Z</time></trkpt>
<trkpt lat="46.796274511496485" lon="6.523072456440001"><ele></ele><time>2014-6-22T15:25:28Z</time></trkpt>
<trkpt lat="46.79643191343611" lon="6.522506519100279"><ele></ele><time>2014-6-22T15:25:31Z</time></trkpt>
<trkpt lat="46.796563691183835" lon="6.522111304215872"><ele></ele><time>2014-6-22T15:25:34Z</time></trkpt>
<trkpt lat="46.796739392719786" lon="6.5215843480302915"><ele></ele><time>2014-6-22T15:25:37Z</time></trkpt>
<trkpt lat="46.79682671789242" lon="6.521255380830096"><ele></ele><time>2014-6-22T15:25:40Z</time></trkpt>
<trkpt lat="46.79697700586101" lon="6.520925342127475"><ele></ele><time>2014-6-22T15:25:43Z</time></trkpt>
<trkpt lat="46.797183151840706" lon="6.520830141414645"><ele></ele><time>2014-6-22T15:25:46Z</time></trkpt>
<trkpt lat="46.79745005614012" lon="6.520458817307652"><ele></ele><time>2014-6-22T15:25:49Z</time></trkpt>
<trkpt lat="46.79759981643313" lon="6.520063283820373"><ele></ele><time>2014-6-22T15:25:52Z</time></trkpt>
<trkpt lat="46.79773211131203" lon="6.519733543301304"><ele></ele><time>2014-6-22T15:25:55Z</time></trkpt>
<trkpt lat="46.79781711743496" lon="6.519116415425802"><ele></ele><time>2014-6-22T15:25:58Z</time></trkpt>
<trkpt lat="46.79781364549989" lon="6.518684188046074"><ele></ele><time>2014-6-22T15:26:1Z</time></trkpt>
<trkpt lat="46.797810803610695" lon="6.518330547503796"><ele></ele><time>2014-6-22T15:26:4Z</time></trkpt>
<trkpt lat="46.79769833759672" lon="6.517769183656201"><ele></ele><time>2014-6-22T15:26:7Z</time></trkpt>
<trkpt lat="46.797668719190305" lon="6.517442199961732"><ele></ele><time>2014-6-22T15:26:10Z</time></trkpt>
<trkpt lat="46.79753168912588" lon="6.517182547945805"><ele></ele><time>2014-6-22T15:26:13Z</time></trkpt>
<trkpt lat="46.797422486359046" lon="6.5170272180844195"><ele></ele><time>2014-6-22T15:26:16Z</time></trkpt>
<trkpt lat="46.79734810267962" lon="6.516727199962735"><ele></ele><time>2014-6-22T15:26:19Z</time></trkpt>
<trkpt lat="46.79734335550376" lon="6.5161378043401275"><ele></ele><time>2014-6-22T15:26:22Z</time></trkpt>
<trkpt lat="46.79732167152973" lon="6.51567969318596"><ele></ele><time>2014-6-22T15:26:25Z</time></trkpt>
<trkpt lat="46.79718358129562" lon="6.51528907093065"><ele></ele><time>2014-6-22T15:26:28Z</time></trkpt>
<trkpt lat="46.79722517462767" lon="6.514869176857857"><ele></ele><time>2014-6-22T15:26:31Z</time></trkpt>
<trkpt lat="46.79740264000919" lon="6.514564851327604"><ele></ele><time>2014-6-22T15:26:34Z</time></trkpt>
<trkpt lat="46.79744528815401" lon="6.514275931991589"><ele></ele><time>2014-6-22T15:26:37Z</time></trkpt>
<trkpt lat="46.797397670137514" lon="6.513949259919948"><ele></ele><time>2014-6-22T15:26:40Z</time></trkpt>
<trkpt lat="46.79735269608429" lon="6.513950030344299"><ele></ele><time>2014-6-22T15:26:43Z</time></trkpt>
<trkpt lat="46.797264863215915" lon="6.51421352431025"><ele></ele><time>2014-6-22T15:26:46Z</time></trkpt>
<trkpt lat="46.79692676058753" lon="6.514677792917764"><ele></ele><time>2014-6-22T15:26:49Z</time></trkpt>
<trkpt lat="46.79668601422373" lon="6.514943900212024"><ele></ele><time>2014-6-22T15:26:52Z</time></trkpt>
<trkpt lat="46.796570666435244" lon="6.515142363468274"><ele></ele><time>2014-6-22T15:26:55Z</time></trkpt>
<trkpt lat="46.796466636344135" lon="6.515628816249918"><ele></ele><time>2014-6-22T15:26:58Z</time></trkpt>
<trkpt lat="46.79637985507068" lon="6.516023277595709"><ele></ele><time>2014-6-22T15:27:1Z</time></trkpt>
<trkpt lat="46.79638386449541" lon="6.516520980542755"><ele></ele><time>2014-6-22T15:27:4Z</time></trkpt>
<trkpt lat="46.79631580780126" lon="6.517006814689888"><ele></ele><time>2014-6-22T15:27:7Z</time></trkpt>
<trkpt lat="46.79629971561251" lon="6.517242875526968"><ele></ele><time>2014-6-22T15:27:10Z</time></trkpt>
<trkpt lat="46.796275892487365" lon="6.517636258786431"><ele></ele><time>2014-6-22T15:27:13Z</time></trkpt>
<trkpt lat="46.796075372184376" lon="6.517312200685156"><ele></ele><time>2014-6-22T15:27:16Z</time></trkpt>
<trkpt lat="46.79595390633344" lon="6.516751010649854"><ele></ele><time>2014-6-22T15:27:19Z</time></trkpt>
<trkpt lat="46.79585921112824" lon="6.516163167385309"><ele></ele><time>2014-6-22T15:27:22Z</time></trkpt>
<trkpt lat="46.79579392554086" lon="6.515876102698719"><ele></ele><time>2014-6-22T15:27:25Z</time></trkpt>
<trkpt lat="46.795612973605" lon="6.5157482052837805"><ele></ele><time>2014-6-22T15:27:28Z</time></trkpt>
<trkpt lat="46.79549730775453" lon="6.5159073711771"><ele></ele><time>2014-6-22T15:27:31Z</time></trkpt>
<trkpt lat="46.795501001189535" lon="6.5163657742699845"><ele></ele><time>2014-6-22T15:27:34Z</time></trkpt>
<trkpt lat="46.795548401384394" lon="6.516666242490697"><ele></ele><time>2014-6-22T15:27:37Z</time></trkpt>
<trkpt lat="46.795508382546956" lon="6.517282580642851"><ele></ele><time>2014-6-22T15:27:40Z</time></trkpt>
<trkpt lat="46.795447842523544" lon="6.517584891387988"><ele></ele><time>2014-6-22T15:27:43Z</time></trkpt>
<trkpt lat="46.79542264898761" lon="6.517808004468533"><ele></ele><time>2014-6-22T15:27:46Z</time></trkpt>
<trkpt lat="46.795315027171505" lon="6.5178491372603675"><ele></ele><time>2014-6-22T15:27:49Z</time></trkpt>
<trkpt lat="46.795150697453366" lon="6.517550664515702"><ele></ele><time>2014-6-22T15:27:52Z</time></trkpt>
<trkpt lat="46.795129546201" lon="6.517158057146494"><ele></ele><time>2014-6-22T15:27:55Z</time></trkpt>
<trkpt lat="46.79494838483352" lon="6.5170039628071965"><ele></ele><time>2014-6-22T15:27:58Z</time></trkpt>
<trkpt lat="46.79483271722656" lon="6.5171631240434404"><ele></ele><time>2014-6-22T15:28:1Z</time></trkpt>
<trkpt lat="46.79474487693004" lon="6.517426600454448"><ele></ele><time>2014-6-22T15:28:4Z</time></trkpt>
<trkpt lat="46.79470253684339" lon="6.51775479394394"><ele></ele><time>2014-6-22T15:28:7Z</time></trkpt>
<trkpt lat="46.79474961746526" lon="6.5180159677757015"><ele></ele><time>2014-6-22T15:28:10Z</time></trkpt>
<trkpt lat="46.79486760315078" lon="6.518144944399028"><ele></ele><time>2014-6-22T15:28:13Z</time></trkpt>
<trkpt lat="46.79482368194761" lon="6.518276681996873"><ele></ele><time>2014-6-22T15:28:16Z</time></trkpt>
<trkpt lat="46.79461838015615" lon="6.518476664483512"><ele></ele><time>2014-6-22T15:28:19Z</time></trkpt>
<trkpt lat="46.79442312511354" lon="6.518807461905855"><ele></ele><time>2014-6-22T15:28:22Z</time></trkpt>
<trkpt lat="46.794155384610036" lon="6.51907399805919"><ele></ele><time>2014-6-22T15:28:25Z</time></trkpt>
<trkpt lat="46.79385939698805" lon="6.519183829023515"><ele></ele><time>2014-6-22T15:28:28Z</time></trkpt>
<trkpt lat="46.79341070760707" lon="6.5193224563357965"><ele></ele><time>2014-6-22T15:28:31Z</time></trkpt>
<trkpt lat="46.79316805773215" lon="6.519352785443505"><ele></ele><time>2014-6-22T15:28:34Z</time></trkpt>
<trkpt lat="46.79287312119269" lon="6.519593578862757"><ele></ele><time>2014-6-22T15:28:37Z</time></trkpt>
<trkpt lat="46.79265035292726" lon="6.5198593380225445"><ele></ele><time>2014-6-22T15:28:40Z</time></trkpt>
<trkpt lat="46.79238418579789" lon="6.520322307418855"><ele></ele><time>2014-6-22T15:28:43Z</time></trkpt>
<trkpt lat="46.79207167760813" lon="6.520615783593579"><ele></ele><time>2014-6-22T15:28:46Z</time></trkpt>
<trkpt lat="46.79184575677245" lon="6.520488643996881"><ele></ele><time>2014-6-22T15:28:49Z</time></trkpt>
<trkpt lat="46.79173655842594" lon="6.520333323826884"><ele></ele><time>2014-6-22T15:28:52Z</time></trkpt>
<trkpt lat="46.7915244232894" lon="6.519682029221865"><ele></ele><time>2014-6-22T15:28:55Z</time></trkpt>
<trkpt lat="46.79138497935829" lon="6.51912118764105"><ele></ele><time>2014-6-22T15:28:58Z</time></trkpt>
<trkpt lat="46.79131982798147" lon="6.518844000689281"><ele></ele><time>2014-6-22T15:29:1Z</time></trkpt>
<trkpt lat="46.791569362667246" lon="6.518551583741799"><ele></ele><time>2014-6-22T15:29:4Z</time></trkpt>
<trkpt lat="46.79158524289694" lon="6.518289350624823"><ele></ele><time>2014-6-22T15:29:7Z</time></trkpt>
<trkpt lat="46.79150990831296" lon="6.517871498508646"><ele></ele><time>2014-6-22T15:29:10Z</time></trkpt>
<trkpt lat="46.791399648736245" lon="6.517585225070768"><ele></ele><time>2014-6-22T15:29:13Z</time></trkpt>
<trkpt lat="46.791290655491906" lon="6.517456107509024"><ele></ele><time>2014-6-22T15:29:16Z</time></trkpt>
<trkpt lat="46.79118166210023" lon="6.517326990469678"><ele></ele><time>2014-6-22T15:29:19Z</time></trkpt>
<trkpt lat="46.79072959897469" lon="6.517046564826384"><ele></ele><time>2014-6-22T15:29:22Z</time></trkpt>
<trkpt lat="46.79037796221783" lon="6.51695100910258"><ele></ele><time>2014-6-22T15:29:25Z</time></trkpt>
<trkpt lat="46.789863886612025" lon="6.516789515964775"><ele></ele><time>2014-6-22T15:29:28Z</time></trkpt>
<trkpt lat="46.78952134517022" lon="6.516703681884717"><ele></ele><time>2014-6-22T15:29:31Z</time></trkpt>
<trkpt lat="46.789295947283904" lon="6.516642043325273"><ele></ele><time>2014-6-22T15:29:34Z</time></trkpt>
<trkpt lat="46.7889795462994" lon="6.516450985023994"><ele></ele><time>2014-6-22T15:29:37Z</time></trkpt>
<trkpt lat="46.7886890742499" lon="6.516128512171681"><ele></ele><time>2014-6-22T15:29:40Z</time></trkpt>
<trkpt lat="46.788479765807864" lon="6.515830850093726"><ele></ele><time>2014-6-22T15:29:43Z</time></trkpt>
<trkpt lat="46.788279768189106" lon="6.515572322960424"><ele></ele><time>2014-6-22T15:29:46Z</time></trkpt>
<trkpt lat="46.78788929424097" lon="6.5151205974765745"><ele></ele><time>2014-6-22T15:29:49Z</time></trkpt>
<trkpt lat="46.78793638091516" lon="6.515381735998911"><ele></ele><time>2014-6-22T15:29:52Z</time></trkpt>
<trkpt lat="46.7881001885132" lon="6.515614685019777"><ele></ele><time>2014-6-22T15:29:55Z</time></trkpt>
<trkpt lat="46.787557859053855" lon="6.515296529267091"><ele></ele><time>2014-6-22T15:29:58Z</time></trkpt>
<trkpt lat="46.78721468257946" lon="6.515132137048789"><ele></ele><time>2014-6-22T15:30:1Z</time></trkpt>
<trkpt lat="46.786764941443195" lon="6.515139829937851"><ele></ele><time>2014-6-22T15:30:4Z</time></trkpt>
<trkpt lat="46.7864065217147" lon="6.515316219421348"><ele></ele><time>2014-6-22T15:30:7Z</time></trkpt>
<trkpt lat="46.78621021973177" lon="6.515516028176902"><ele></ele><time>2014-6-22T15:30:10Z</time></trkpt>
<trkpt lat="46.78613900028702" lon="6.515608923205004"><ele></ele><time>2014-6-22T15:30:13Z</time></trkpt>
<trkpt lat="46.78584905387366" lon="6.5153519463105"><ele></ele><time>2014-6-22T15:30:16Z</time></trkpt>
<trkpt lat="46.78544375867949" lon="6.51529339415933"><ele></ele><time>2014-6-22T15:30:19Z</time></trkpt>
<trkpt lat="46.785102272204554" lon="6.515338523666802"><ele></ele><time>2014-6-22T15:30:22Z</time></trkpt>
<trkpt lat="46.78474004960228" lon="6.515043500207894"><ele></ele><time>2014-6-22T15:30:25Z</time></trkpt>
<trkpt lat="46.78451443938073" lon="6.514955684940725"><ele></ele><time>2014-6-22T15:30:28Z</time></trkpt>
<trkpt lat="46.78437951700571" lon="6.514957993148743"><ele></ele><time>2014-6-22T15:30:31Z</time></trkpt>
<trkpt lat="46.78463665334598" lon="6.515608413985792"><ele></ele><time>2014-6-22T15:30:34Z</time></trkpt>
<trkpt lat="46.78479114902731" lon="6.515802219280666"><ele></ele><time>2014-6-22T15:30:37Z</time></trkpt>
<trkpt lat="46.78492712699237" lon="6.515930859790358"><ele></ele><time>2014-6-22T15:30:40Z</time></trkpt>
<trkpt lat="46.78425831796114" lon="6.516662586102872"><ele></ele><time>2014-6-22T15:30:43Z</time></trkpt>
<trkpt lat="46.78281222122064" lon="6.5180623536701505"><ele></ele><time>2014-6-22T15:30:46Z</time></trkpt>
<trkpt lat="46.780090352606635" lon="6.520793291299986"><ele></ele><time>2014-6-22T15:30:49Z</time></trkpt>
<trkpt lat="46.779866741486124" lon="6.520954234963981"><ele></ele><time>2014-6-22T15:30:52Z</time></trkpt>
<trkpt lat="46.781104626447195" lon="6.523879689777983"><ele></ele><time>2014-6-22T15:30:55Z</time></trkpt>
<trkpt lat="46.782341393254775" lon="6.526674338364494"><ele></ele><time>2014-6-22T15:30:58Z</time></trkpt>
<trkpt lat="46.78243342778503" lon="6.526934700714304"><ele></ele><time>2014-6-22T15:31:1Z</time></trkpt>
<trkpt lat="46.78236355454148" lon="6.527197796945551"><ele></ele><time>2014-6-22T15:31:4Z</time></trkpt>
<trkpt lat="46.78225749285393" lon="6.527435311575376"><ele></ele><time>2014-6-22T15:31:7Z</time></trkpt>
<trkpt lat="46.78232306211581" lon="6.5277616003297405"><ele></ele><time>2014-6-22T15:31:10Z</time></trkpt>
<trkpt lat="46.78259519938645" lon="6.528045118772869"><ele></ele><time>2014-6-22T15:31:13Z</time></trkpt>
<trkpt lat="46.78295811738715" lon="6.5284318772884795"><ele></ele><time>2014-6-22T15:31:16Z</time></trkpt>
<trkpt lat="46.78309439347276" lon="6.528599827997214"><ele></ele><time>2014-6-22T15:31:19Z</time></trkpt>
<trkpt lat="46.78305014790872" lon="6.528692245616207"><ele></ele><time>2014-6-22T15:31:22Z</time></trkpt>
<trkpt lat="46.78277874106906" lon="6.528500380666667"><ele></ele><time>2014-6-22T15:31:25Z</time></trkpt>
<trkpt lat="46.78235390085604" lon="6.528245625343917"><ele></ele><time>2014-6-22T15:31:28Z</time></trkpt>
<trkpt lat="46.78187561181298" lon="6.528057253952275"><ele></ele><time>2014-6-22T15:31:31Z</time></trkpt>
<trkpt lat="46.782355983356695" lon="6.52850750657762"><ele></ele><time>2014-6-22T15:31:34Z</time></trkpt>
<trkpt lat="46.78290014943947" lon="6.529061460006396"><ele></ele><time>2014-6-22T15:31:37Z</time></trkpt>
<trkpt lat="46.783281261682596" lon="6.529474113209084"><ele></ele><time>2014-6-22T15:31:40Z</time></trkpt>
<trkpt lat="46.78349178219891" lon="6.5299289316207245"><ele></ele><time>2014-6-22T15:31:43Z</time></trkpt>
<trkpt lat="46.78387476124272" lon="6.530577295306193"><ele></ele><time>2014-6-22T15:31:46Z</time></trkpt>
<trkpt lat="46.78412952480718" lon="6.530939705559519"><ele></ele><time>2014-6-22T15:31:49Z</time></trkpt>
<trkpt lat="46.78437446200147" lon="6.531197513929306"><ele></ele><time>2014-6-22T15:31:52Z</time></trkpt>
<trkpt lat="46.784690008212465" lon="6.531283885362187"><ele></ele><time>2014-6-22T15:31:55Z</time></trkpt>
<trkpt lat="46.784871980688955" lon="6.531542755779155"><ele></ele><time>2014-6-22T15:31:58Z</time></trkpt>
<trkpt lat="46.7849643152975" lon="6.531842422765298"><ele></ele><time>2014-6-22T15:32:1Z</time></trkpt>
<trkpt lat="46.784739651571904" lon="6.5318723886637695"><ele></ele><time>2014-6-22T15:32:4Z</time></trkpt>
<trkpt lat="46.78454228353244" lon="6.5319411849509015"><ele></ele><time>2014-6-22T15:32:7Z</time></trkpt>
<trkpt lat="46.78447322822912" lon="6.53230904164894"><ele></ele><time>2014-6-22T15:32:10Z</time></trkpt>
<trkpt lat="46.7842054559642" lon="6.532575461565756"><ele></ele><time>2014-6-22T15:32:13Z</time></trkpt>
<trkpt lat="46.78385053159288" lon="6.533196937488282"><ele></ele><time>2014-6-22T15:32:16Z</time></trkpt>
<trkpt lat="46.78343295037026" lon="6.533858743346087"><ele></ele><time>2014-6-22T15:32:19Z</time></trkpt>
<trkpt lat="46.78329158973903" lon="6.5341462457705735"><ele></ele><time>2014-6-22T15:32:22Z</time></trkpt>
<trkpt lat="46.78369295783489" lon="6.534846702665892"><ele></ele><time>2014-6-22T15:32:25Z</time></trkpt>
<trkpt lat="46.783983293781645" lon="6.535198429966988"><ele></ele><time>2014-6-22T15:32:28Z</time></trkpt>
<trkpt lat="46.783939559535064" lon="6.5353563159914065"><ele></ele><time>2014-6-22T15:32:31Z</time></trkpt>
<trkpt lat="46.78337061029746" lon="6.535077720784949"><ele></ele><time>2014-6-22T15:32:34Z</time></trkpt>
<trkpt lat="46.78299094705571" lon="6.534806089674618"><ele></ele><time>2014-6-22T15:32:37Z</time></trkpt>
<trkpt lat="46.7826495579928" lon="6.534864197701518"><ele></ele><time>2014-6-22T15:32:40Z</time></trkpt>
<trkpt lat="46.78218472670775" lon="6.535238673381819"><ele></ele><time>2014-6-22T15:32:43Z</time></trkpt>
<trkpt lat="46.781618163966556" lon="6.535303479790794"><ele></ele><time>2014-6-22T15:32:46Z</time></trkpt>
<trkpt lat="46.78148333718653" lon="6.535276619683882"><ele></ele><time>2014-6-22T15:32:49Z</time></trkpt>
<trkpt lat="46.78141634655615" lon="6.535906330935609"><ele></ele><time>2014-6-22T15:32:52Z</time></trkpt>
<trkpt lat="46.781580419231574" lon="6.53622080425413"><ele></ele><time>2014-6-22T15:32:55Z</time></trkpt>
<trkpt lat="46.7822167657783" lon="6.5370613941787274"><ele></ele><time>2014-6-22T15:32:58Z</time></trkpt>
<trkpt lat="46.78276284842087" lon="6.537864221887495"><ele></ele><time>2014-6-22T15:33:1Z</time></trkpt>
<trkpt lat="46.782438276925774" lon="6.538917301850278"><ele></ele><time>2014-6-22T15:33:4Z</time></trkpt>
<trkpt lat="46.78191534089583" lon="6.541060612325879"><ele></ele><time>2014-6-22T15:33:7Z</time></trkpt>
<trkpt lat="46.78143262575648" lon="6.542600817594089"><ele></ele><time>2014-6-22T15:33:10Z</time></trkpt>
<trkpt lat="46.781433138217494" lon="6.542666286917992"><ele></ele><time>2014-6-22T15:33:13Z</time></trkpt>
<trkpt lat="46.78224575002739" lon="6.543045676146577"><ele></ele><time>2014-6-22T15:33:16Z</time></trkpt>
<trkpt lat="46.78271532674602" lon="6.543273613477552"><ele></ele><time>2014-6-22T15:33:19Z</time></trkpt>
<trkpt lat="46.783402024499736" lon="6.543599755986256"><ele></ele><time>2014-6-22T15:33:22Z</time></trkpt>
<trkpt lat="46.78398056581631" lon="6.543956842798881"><ele></ele><time>2014-6-22T15:33:25Z</time></trkpt>
<trkpt lat="46.78354174344278" lon="6.545420762029775"><ele></ele><time>2014-6-22T15:33:28Z</time></trkpt>
<trkpt lat="46.783098842286996" lon="6.546305518142997"><ele></ele><time>2014-6-22T15:33:31Z</time></trkpt>
<trkpt lat="46.78285934838579" lon="6.546741640783609"><ele></ele><time>2014-6-22T15:33:34Z</time></trkpt>
<trkpt lat="46.783241212555154" lon="6.547259173126996"><ele></ele><time>2014-6-22T15:33:37Z</time></trkpt>
<trkpt lat="46.78408283164768" lon="6.547900089380239"><ele></ele><time>2014-6-22T15:33:40Z</time></trkpt>
<trkpt lat="46.78437423266311" lon="6.54835365170223"><ele></ele><time>2014-6-22T15:33:43Z</time></trkpt>
<trkpt lat="46.78469383779227" lon="6.548963910245935"><ele></ele><time>2014-6-22T15:33:46Z</time></trkpt>
<trkpt lat="46.784769154253425" lon="6.549394849251688"><ele></ele><time>2014-6-22T15:33:49Z</time></trkpt>
<trkpt lat="46.78452004370687" lon="6.54975255197036"><ele></ele><time>2014-6-22T15:33:52Z</time></trkpt>
<trkpt lat="46.78429822155013" lon="6.550149091062032"><ele></ele><time>2014-6-22T15:33:55Z</time></trkpt>
<trkpt lat="46.78437454929329" lon="6.550710974500989"><ele></ele><time>2014-6-22T15:33:58Z</time></trkpt>
<trkpt lat="46.784558000677215" lon="6.551166328547595"><ele></ele><time>2014-6-22T15:34:1Z</time></trkpt>
<trkpt lat="46.784648964479224" lon="6.551295796766072"><ele></ele><time>2014-6-22T15:34:4Z</time></trkpt>
<trkpt lat="46.78416939364619" lon="6.550936983793898"><ele></ele><time>2014-6-22T15:34:7Z</time></trkpt>
<trkpt lat="46.78385386227371" lon="6.5508504981785425"><ele></ele><time>2014-6-22T15:34:10Z</time></trkpt>
<trkpt lat="46.78356297914321" lon="6.550462398725241"><ele></ele><time>2014-6-22T15:34:13Z</time></trkpt>
<trkpt lat="46.78330705770036" lon="6.549942768046929"><ele></ele><time>2014-6-22T15:34:16Z</time></trkpt>
<trkpt lat="46.78280081321038" lon="6.549555282314335"><ele></ele><time>2014-6-22T15:34:19Z</time></trkpt>
<trkpt lat="46.78244695158164" lon="6.549236654808004"><ele></ele><time>2014-6-22T15:34:22Z</time></trkpt>
<trkpt lat="46.782068658244825" lon="6.549177407156693"><ele></ele><time>2014-6-22T15:34:25Z</time></trkpt>
<trkpt lat="46.78191748386889" lon="6.549334129652062"><ele></ele><time>2014-6-22T15:34:28Z</time></trkpt>
<trkpt lat="46.78188313508682" lon="6.549544227255067"><ele></ele><time>2014-6-22T15:34:31Z</time></trkpt>
<trkpt lat="46.78182998116302" lon="6.549649869341561"><ele></ele><time>2014-6-22T15:34:34Z</time></trkpt>
<trkpt lat="46.78172224677239" lon="6.5496778374169935"><ele></ele><time>2014-6-22T15:34:37Z</time></trkpt>
<trkpt lat="46.78132423166288" lon="6.549396299350436"><ele></ele><time>2014-6-22T15:34:40Z</time></trkpt>
<trkpt lat="46.78090761441955" lon="6.5490364997310495"><ele></ele><time>2014-6-22T15:34:43Z</time></trkpt>
<trkpt lat="46.780493239663635" lon="6.548964766227543"><ele></ele><time>2014-6-22T15:34:46Z</time></trkpt>
<trkpt lat="46.779718866968025" lon="6.548872785553079"><ele></ele><time>2014-6-22T15:34:49Z</time></trkpt>
<trkpt lat="46.77946660329331" lon="6.548824569049817"><ele></ele><time>2014-6-22T15:34:52Z</time></trkpt>
<trkpt lat="46.77907103391582" lon="6.548857288647536"><ele></ele><time>2014-6-22T15:34:55Z</time></trkpt>
<trkpt lat="46.77871307532932" lon="6.5490989055773765"><ele></ele><time>2014-6-22T15:34:58Z</time></trkpt>
<trkpt lat="46.778426259576264" lon="6.549234586904558"><ele></ele><time>2014-6-22T15:35:1Z</time></trkpt>
<trkpt lat="46.778177053595265" lon="6.549579162857152"><ele></ele><time>2014-6-22T15:35:4Z</time></trkpt>
<trkpt lat="46.777873470017894" lon="6.549872253252469"><ele></ele><time>2014-6-22T15:35:7Z</time></trkpt>
<trkpt lat="46.77755128496899" lon="6.550087079146021"><ele></ele><time>2014-6-22T15:35:10Z</time></trkpt>
<trkpt lat="46.77789512582488" lon="6.550343305826531"><ele></ele><time>2014-6-22T15:35:13Z</time></trkpt>
<trkpt lat="46.77834792204087" lon="6.550728689076218"><ele></ele><time>2014-6-22T15:35:16Z</time></trkpt>
<trkpt lat="46.778511864382914" lon="6.550987885926296"><ele></ele><time>2014-6-22T15:35:19Z</time></trkpt>
<trkpt lat="46.77864308053287" lon="6.551666659575271"><ele></ele><time>2014-6-22T15:35:22Z</time></trkpt>
<trkpt lat="46.77905094505382" lon="6.5509004391105"><ele></ele><time>2014-6-22T15:35:25Z</time></trkpt>
<trkpt lat="46.77944346186944" lon="6.550474932204706"><ele></ele><time>2014-6-22T15:35:28Z</time></trkpt>
<trkpt lat="46.779874196661794" lon="6.5503368833046665"><ele></ele><time>2014-6-22T15:35:31Z</time></trkpt>
<trkpt lat="46.78025218396907" lon="6.550356844969864"><ele></ele><time>2014-6-22T15:35:34Z</time></trkpt>
<trkpt lat="46.7805244724146" lon="6.550666646361819"><ele></ele><time>2014-6-22T15:35:37Z</time></trkpt>
<trkpt lat="46.78087095665403" lon="6.551263328572969"><ele></ele><time>2014-6-22T15:35:40Z</time></trkpt>
<trkpt lat="46.78129122576101" lon="6.552094524153181"><ele></ele><time>2014-6-22T15:35:43Z</time></trkpt>
<trkpt lat="46.78158535785033" lon="6.552901614011208"><ele></ele><time>2014-6-22T15:35:46Z</time></trkpt>
<trkpt lat="46.781713721725005" lon="6.5532137999486455"><ele></ele><time>2014-6-22T15:35:49Z</time></trkpt>
<trkpt lat="46.78164318348385" lon="6.5533982972472495"><ele></ele><time>2014-6-22T15:35:52Z</time></trkpt>
<trkpt lat="46.78164328494208" lon="6.553411391197001"><ele></ele><time>2014-6-22T15:35:55Z</time></trkpt>
<trkpt lat="46.78171385305141" lon="6.553308370952962"><ele></ele><time>2014-6-22T15:35:58Z</time></trkpt>
<trkpt lat="46.78153598057122" lon="6.553573198632748"><ele></ele><time>2014-6-22T15:36:1Z</time></trkpt>
<trkpt lat="46.78174893446168" lon="6.55435544544703"><ele></ele><time>2014-6-22T15:36:4Z</time></trkpt>
<trkpt lat="46.781999378250305" lon="6.5553335201440195"><ele></ele><time>2014-6-22T15:36:7Z</time></trkpt>
<trkpt lat="46.78230176413865" lon="6.556048840047859"><ele></ele><time>2014-6-22T15:36:10Z</time></trkpt>
<trkpt lat="46.78309339884244" lon="6.557214535576386"><ele></ele><time>2014-6-22T15:36:13Z</time></trkpt>
<trkpt lat="46.783184557421926" lon="6.557370199114937"><ele></ele><time>2014-6-22T15:36:16Z</time></trkpt>
<trkpt lat="46.78245942338194" lon="6.55891132359025"><ele></ele><time>2014-6-22T15:36:19Z</time></trkpt>
<trkpt lat="46.781308818450874" lon="6.561460417112063"><ele></ele><time>2014-6-22T15:36:22Z</time></trkpt>
<trkpt lat="46.781060773220645" lon="6.561962073035053"><ele></ele><time>2014-6-22T15:36:25Z</time></trkpt>
<trkpt lat="46.780923885417586" lon="6.5640595598658775"><ele></ele><time>2014-6-22T15:36:28Z</time></trkpt>
<trkpt lat="46.78062072622028" lon="6.567846168446301"><ele></ele><time>2014-6-22T15:36:31Z</time></trkpt>
<trkpt lat="46.781349890212965" lon="6.569091558714921"><ele></ele><time>2014-6-22T15:36:34Z</time></trkpt>
<trkpt lat="46.7806464960319" lon="6.5688671891132175"><ele></ele><time>2014-6-22T15:36:37Z</time></trkpt>
<trkpt lat="46.779668554752476" lon="6.568139369086855"><ele></ele><time>2014-6-22T15:36:40Z</time></trkpt>
<trkpt lat="46.77813045454319" lon="6.566985637647161"><ele></ele><time>2014-6-22T15:36:43Z</time></trkpt>
<trkpt lat="46.77766042622054" lon="6.566692048264548"><ele></ele><time>2014-6-22T15:36:46Z</time></trkpt>
<trkpt lat="46.77668847835052" lon="6.566642269171086"><ele></ele><time>2014-6-22T15:36:49Z</time></trkpt>
<trkpt lat="46.77595139519403" lon="6.566719641332334"><ele></ele><time>2014-6-22T15:36:52Z</time></trkpt>
<trkpt lat="46.77493646713603" lon="6.566932436104295"><ele></ele><time>2014-6-22T15:36:55Z</time></trkpt>
<trkpt lat="46.77471189369774" lon="6.566975342520953"><ele></ele><time>2014-6-22T15:36:58Z</time></trkpt>
<trkpt lat="46.7741249314424" lon="6.566683659752899"><ele></ele><time>2014-6-22T15:37:1Z</time></trkpt>
<trkpt lat="46.77367448810093" lon="6.566599276676232"><ele></ele><time>2014-6-22T15:37:4Z</time></trkpt>
<trkpt lat="46.77294940752219" lon="6.565890843692928"><ele></ele><time>2014-6-22T15:37:7Z</time></trkpt>
<trkpt lat="46.772404720079564" lon="6.5652449789525065"><ele></ele><time>2014-6-22T15:37:10Z</time></trkpt>
<trkpt lat="46.77168183029125" lon="6.564824594695093"><ele></ele><time>2014-6-22T15:37:13Z</time></trkpt>
<trkpt lat="46.77125824962741" lon="6.564619374892426"><ele></ele><time>2014-6-22T15:37:16Z</time></trkpt>
<trkpt lat="46.77074912500666" lon="6.563920609196699"><ele></ele><time>2014-6-22T15:37:19Z</time></trkpt>
<trkpt lat="46.770120285566485" lon="6.564035553868053"><ele></ele><time>2014-6-22T15:37:22Z</time></trkpt>
<trkpt lat="46.769851641995736" lon="6.564197024523148"><ele></ele><time>2014-6-22T15:37:25Z</time></trkpt>
<trkpt lat="46.76922921246702" lon="6.565149785147196"><ele></ele><time>2014-6-22T15:37:28Z</time></trkpt>
<trkpt lat="46.76887241992861" lon="6.565548340211788"><ele></ele><time>2014-6-22T15:37:31Z</time></trkpt>
<trkpt lat="46.76954444235401" lon="6.566375387517813"><ele></ele><time>2014-6-22T15:37:34Z</time></trkpt>
<trkpt lat="46.77025283776084" lon="6.567254238737044"><ele></ele><time>2014-6-22T15:37:37Z</time></trkpt>
<trkpt lat="46.76882436664686" lon="6.571047957350237"><ele></ele><time>2014-6-22T15:37:40Z</time></trkpt>
<trkpt lat="46.77295516557258" lon="6.574951421003679"><ele></ele><time>2014-6-22T15:37:43Z</time></trkpt>
<trkpt lat="46.773967336243636" lon="6.575563731861606"><ele></ele><time>2014-6-22T15:37:46Z</time></trkpt>
<trkpt lat="46.77557385834757" lon="6.576258232748519"><ele></ele><time>2014-6-22T15:37:49Z</time></trkpt>
<trkpt lat="46.77685626340224" lon="6.5769186632084615"><ele></ele><time>2014-6-22T15:37:52Z</time></trkpt>
<trkpt lat="46.7776245754395" lon="6.5774039976845"><ele></ele><time>2014-6-22T15:37:55Z</time></trkpt>
<trkpt lat="46.77736112800466" lon="6.578259342105667"><ele></ele><time>2014-6-22T15:37:58Z</time></trkpt>
<trkpt lat="46.77678825709371" lon="6.579839792886101"><ele></ele><time>2014-6-22T15:38:1Z</time></trkpt>
<trkpt lat="46.776565348487246" lon="6.580105223794626"><ele></ele><time>2014-6-22T15:38:4Z</time></trkpt>
<trkpt lat="46.776547653248" lon="6.580144788019176"><ele></ele><time>2014-6-22T15:38:7Z</time></trkpt>
<trkpt lat="46.776502580464374" lon="6.580132410203445"><ele></ele><time>2014-6-22T15:38:10Z</time></trkpt>
<trkpt lat="46.777061247234755" lon="6.580254473687305"><ele></ele><time>2014-6-22T15:38:13Z</time></trkpt>
<trkpt lat="46.77742428317092" lon="6.580680822657225"><ele></ele><time>2014-6-22T15:38:16Z</time></trkpt>
<trkpt lat="46.77772454925002" lon="6.581134363226337"><ele></ele><time>2014-6-22T15:38:19Z</time></trkpt>
<trkpt lat="46.77813324266865" lon="6.581651661549761"><ele></ele><time>2014-6-22T15:38:22Z</time></trkpt>
<trkpt lat="46.77842695877744" lon="6.582432686337022"><ele></ele><time>2014-6-22T15:38:25Z</time></trkpt>
<trkpt lat="46.77887016297103" lon="6.583957759050085"><ele></ele><time>2014-6-22T15:38:28Z</time></trkpt>
<trkpt lat="46.779192605881725" lon="6.584974061561433"><ele></ele><time>2014-6-22T15:38:31Z</time></trkpt>
<trkpt lat="46.77951250354609" lon="6.585649945797056"><ele></ele><time>2014-6-22T15:38:34Z</time></trkpt>
<trkpt lat="46.77929104437611" lon="6.586111767453579"><ele></ele><time>2014-6-22T15:38:37Z</time></trkpt>
<trkpt lat="46.77908611111351" lon="6.5863769008464175"><ele></ele><time>2014-6-22T15:38:40Z</time></trkpt>
<trkpt lat="46.77929864581141" lon="6.58713305470598"><ele></ele><time>2014-6-22T15:38:43Z</time></trkpt>
<trkpt lat="46.77954559805913" lon="6.587679151892918"><ele></ele><time>2014-6-22T15:38:46Z</time></trkpt>
<trkpt lat="46.7799107461016" lon="6.588393629217732"><ele></ele><time>2014-6-22T15:38:49Z</time></trkpt>
<trkpt lat="46.780005556050206" lon="6.58904689314665"><ele></ele><time>2014-6-22T15:38:52Z</time></trkpt>
<trkpt lat="46.78012589034584" lon="6.589503330668991"><ele></ele><time>2014-6-22T15:38:55Z</time></trkpt>
<trkpt lat="46.78046093606027" lon="6.589799253068754"><ele></ele><time>2014-6-22T15:38:58Z</time></trkpt>
<trkpt lat="46.78085402560685" lon="6.59064427119885"><ele></ele><time>2014-6-22T15:39:1Z</time></trkpt>
<trkpt lat="46.781011011774105" lon="6.591191811751127"><ele></ele><time>2014-6-22T15:39:4Z</time></trkpt>
<trkpt lat="46.78131249533524" lon="6.591815662041817"><ele></ele><time>2014-6-22T15:39:7Z</time></trkpt>
<trkpt lat="46.781519474030596" lon="6.591665526395143"><ele></ele><time>2014-6-22T15:39:10Z</time></trkpt>
<trkpt lat="46.78168099393322" lon="6.591610606280264"><ele></ele><time>2014-6-22T15:39:13Z</time></trkpt>
<trkpt lat="46.78182346244001" lon="6.591571929230903"><ele></ele><time>2014-6-22T15:39:16Z</time></trkpt>
<trkpt lat="46.78212029500603" lon="6.591567273174558"><ele></ele><time>2014-6-22T15:39:19Z</time></trkpt>
<trkpt lat="46.782545768818544" lon="6.591927280020811"><ele></ele><time>2014-6-22T15:39:22Z</time></trkpt>
<trkpt lat="46.78293593937422" lon="6.592379516694755"><ele></ele><time>2014-6-22T15:39:25Z</time></trkpt>
<trkpt lat="46.783185284303755" lon="6.593253034304066"><ele></ele><time>2014-6-22T15:39:28Z</time></trkpt>
<trkpt lat="46.78341431398971" lon="6.593812574770411"><ele></ele><time>2014-6-22T15:39:31Z</time></trkpt>
<trkpt lat="46.78371472092764" lon="6.5942924278727855"><ele></ele><time>2014-6-22T15:39:34Z</time></trkpt>
<trkpt lat="46.783871496544954" lon="6.594813818990344"><ele></ele><time>2014-6-22T15:39:37Z</time></trkpt>
<trkpt lat="46.78400815752105" lon="6.595047413178616"><ele></ele><time>2014-6-22T15:39:40Z</time></trkpt>
<trkpt lat="46.784171224000836" lon="6.59520201935831"><ele></ele><time>2014-6-22T15:39:43Z</time></trkpt>
<trkpt lat="46.78426454888105" lon="6.595658927126832"><ele></ele><time>2014-6-22T15:39:46Z</time></trkpt>
<trkpt lat="46.784195770465786" lon="6.596092173328728"><ele></ele><time>2014-6-22T15:39:49Z</time></trkpt>
<trkpt lat="46.784106302998204" lon="6.59615904982291"><ele></ele><time>2014-6-22T15:39:52Z</time></trkpt>
<trkpt lat="46.78428957335678" lon="6.596614556129637"><ele></ele><time>2014-6-22T15:39:55Z</time></trkpt>
<trkpt lat="46.78445485203589" lon="6.597070345895524"><ele></ele><time>2014-6-22T15:39:58Z</time></trkpt>
<trkpt lat="46.78450319479184" lon="6.597527959826228"><ele></ele><time>2014-6-22T15:40:1Z</time></trkpt>
<trkpt lat="46.78450608027533" lon="6.597920801161314"><ele></ele><time>2014-6-22T15:40:4Z</time></trkpt>
<trkpt lat="46.78448149901798" lon="6.598248588927294"><ele></ele><time>2014-6-22T15:40:7Z</time></trkpt>
<trkpt lat="46.78428428333236" lon="6.598343331193247"><ele></ele><time>2014-6-22T15:40:10Z</time></trkpt>
<trkpt lat="46.78421357320006" lon="6.598514681280701"><ele></ele><time>2014-6-22T15:40:13Z</time></trkpt>
<trkpt lat="46.78424363218429" lon="6.598933290234589"><ele></ele><time>2014-6-22T15:40:16Z</time></trkpt>
<trkpt lat="46.78422077590301" lon="6.599496779551888"><ele></ele><time>2014-6-22T15:40:19Z</time></trkpt>
<trkpt lat="46.784207295428274" lon="6.6001125072813185"><ele></ele><time>2014-6-22T15:40:22Z</time></trkpt>
<trkpt lat="46.78412166047484" lon="6.600703162017674"><ele></ele><time>2014-6-22T15:40:25Z</time></trkpt>
<trkpt lat="46.78403745891063" lon="6.60149023393728"><ele></ele><time>2014-6-22T15:40:28Z</time></trkpt>
<trkpt lat="46.78419420169892" lon="6.602011649096223"><ele></ele><time>2014-6-22T15:40:31Z</time></trkpt>
<trkpt lat="46.78437869192761" lon="6.602637406989078"><ele></ele><time>2014-6-22T15:40:34Z</time></trkpt>
<trkpt lat="46.7844719870927" lon="6.603094329377866"><ele></ele><time>2014-6-22T15:40:37Z</time></trkpt>
<trkpt lat="46.784431502429086" lon="6.603710476293411"><ele></ele><time>2014-6-22T15:40:40Z</time></trkpt>
<trkpt lat="46.78425733076863" lon="6.604498937453525"><ele></ele><time>2014-6-22T15:40:43Z</time></trkpt>
<trkpt lat="46.784246492188494" lon="6.605481314864533"><ele></ele><time>2014-6-22T15:40:46Z</time></trkpt>
<trkpt lat="46.78446831550927" lon="6.605058814496838"><ele></ele><time>2014-6-22T15:40:49Z</time></trkpt>
<trkpt lat="46.784781231246804" lon="6.604792058938455"><ele></ele><time>2014-6-22T15:40:52Z</time></trkpt>
<trkpt lat="46.785410877000636" lon="6.604782336243584"><ele></ele><time>2014-6-22T15:40:55Z</time></trkpt>
<trkpt lat="46.78596780015096" lon="6.604668963894531"><ele></ele><time>2014-6-22T15:40:58Z</time></trkpt>
<trkpt lat="46.786355345547676" lon="6.604767751778976"><ele></ele><time>2014-6-22T15:41:1Z</time></trkpt>
<trkpt lat="46.78669006548399" lon="6.605024517456671"><ele></ele><time>2014-6-22T15:41:4Z</time></trkpt>
<trkpt lat="46.787007938654455" lon="6.605438707947843"><ele></ele><time>2014-6-22T15:41:7Z</time></trkpt>
<trkpt lat="46.78718222381062" lon="6.607138608437646"><ele></ele><time>2014-6-22T15:41:10Z</time></trkpt>
<trkpt lat="46.78732835983954" lon="6.60868178959102"><ele></ele><time>2014-6-22T15:41:13Z</time></trkpt>
<trkpt lat="46.78738490459552" lon="6.610278740778312"><ele></ele><time>2014-6-22T15:41:16Z</time></trkpt>
<trkpt lat="46.787324114495405" lon="6.611825103971126"><ele></ele><time>2014-6-22T15:41:19Z</time></trkpt>
<trkpt lat="46.787271071223245" lon="6.613201085868578"><ele></ele><time>2014-6-22T15:41:22Z</time></trkpt>
<trkpt lat="46.78772053533889" lon="6.613154924380308"><ele></ele><time>2014-6-22T15:41:25Z</time></trkpt>
<trkpt lat="46.78817009383353" lon="6.613121857751654"><ele></ele><time>2014-6-22T15:41:28Z</time></trkpt>
<trkpt lat="46.78839515632579" lon="6.613144611279761"><ele></ele><time>2014-6-22T15:41:31Z</time></trkpt>
<trkpt lat="46.78868771358523" lon="6.613794998648832"><ele></ele><time>2014-6-22T15:41:34Z</time></trkpt>
<trkpt lat="46.788988130761616" lon="6.614288105830067"><ele></ele><time>2014-6-22T15:41:37Z</time></trkpt>
<trkpt lat="46.78923401071578" lon="6.614703466601538"><ele></ele><time>2014-6-22T15:41:40Z</time></trkpt>
<trkpt lat="46.78931303394955" lon="6.615684561734678"><ele></ele><time>2014-6-22T15:41:43Z</time></trkpt>
<trkpt lat="46.78942878062293" lon="6.616769879563866"><ele></ele><time>2014-6-22T15:41:46Z</time></trkpt>
<trkpt lat="46.78956671215294" lon="6.617186897109136"><ele></ele><time>2014-6-22T15:41:49Z</time></trkpt>
<trkpt lat="46.78982138869609" lon="6.61757594671244"><ele></ele><time>2014-6-22T15:41:52Z</time></trkpt>
<trkpt lat="46.790159833729554" lon="6.618356653200869"><ele></ele><time>2014-6-22T15:41:55Z</time></trkpt>
<trkpt lat="46.790881587237216" lon="6.618646936296323"><ele></ele><time>2014-6-22T15:41:58Z</time></trkpt>
<trkpt lat="46.79137696596143" lon="6.618731098258269"><ele></ele><time>2014-6-22T15:42:1Z</time></trkpt>
<trkpt lat="46.792213777584465" lon="6.618757685505448"><ele></ele><time>2014-6-22T15:42:4Z</time></trkpt>
<trkpt lat="46.79306973680682" lon="6.6187284630936905"><ele></ele><time>2014-6-22T15:42:7Z</time></trkpt>
<trkpt lat="46.793038265981345" lon="6.61935765862131"><ele></ele><time>2014-6-22T15:42:10Z</time></trkpt>
<trkpt lat="46.79274032077398" lon="6.62046243602142"><ele></ele><time>2014-6-22T15:42:13Z</time></trkpt>
<trkpt lat="46.79237152910812" lon="6.621725452309665"><ele></ele><time>2014-6-22T15:42:16Z</time></trkpt>
<trkpt lat="46.79204113320964" lon="6.623328418418698"><ele></ele><time>2014-6-22T15:42:19Z</time></trkpt>
<trkpt lat="46.79140849733837" lon="6.622918857189316"><ele></ele><time>2014-6-22T15:42:22Z</time></trkpt>
<trkpt lat="46.79137494786791" lon="6.6232599091782625"><ele></ele><time>2014-6-22T15:42:25Z</time></trkpt>
</trkseg></trk></gpx>